Observation data for Fort Lancaster on 07/21/2019      Previous  Date  Next       Current Mesonet Observations  Soil Data  Daily Summary Page  Observations in Plain Language
KLA1 210500Z 13007KT 29/12 A299 RMK A01 T02850123  RH  037%=      5-min Rain = 0
KLA1 210501Z 13008KT 29/12 A299 RMK A01 T02850123  RH  037%=      5-min Rain = 0
KLA1 210502Z 13007KT 29/12 A299 RMK A01 T02850122  RH  037%=      5-min Rain = 0
KLA1 210503Z 12007KT 29/12 A299 RMK A01 T02850122  RH  037%=      5-min Rain = 0
KLA1 210504Z 12007KT 29/12 A299 RMK A01 T02850122  RH  037%=      5-min Rain = 0
KLA1 210505Z 12007KT 29/12 A299 RMK A01 T02850122  RH  037%=      5-min Rain = 0
KLA1 210506Z 12006KT 29/12 A299 RMK A01 T02850122  RH  037%=      5-min Rain = 0
KLA1 210507Z 12007KT 29/12 A299 RMK A01 T02850122  RH  037%=      5-min Rain = 0
KLA1 210508Z 12007KT 29/12 A299 RMK A01 T02850122  RH  037%=      5-min Rain = 0
KLA1 210509Z 12008KT 28/12 A299 RMK A01 T02840122  RH  037%=      5-min Rain = 0
KLA1 210510Z 12007KT 28/12 A299 RMK A01 T02840122  RH  037%=      5-min Rain = 0
KLA1 210511Z 12007KT 28/12 A299 RMK A01 T02840122  RH  037%=      5-min Rain = 0
KLA1 210512Z 13007KT 28/12 A299 RMK A01 T02840122  RH  037%=      5-min Rain = 0
KLA1 210513Z 12007KT 28/12 A299 RMK A01 T02840122  RH  037%=      5-min Rain = 0
KLA1 210514Z 12007KT 28/12 A299 RMK A01 T02840122  RH  037%=      5-min Rain = 0
KLA1 210515Z 13006KT 28/12 A299 RMK A01 T02840121  RH  037%=      5-min Rain = 0
KLA1 210516Z 13006KT 28/12 A299 RMK A01 T02840121  RH  037%=      5-min Rain = 0
KLA1 210517Z 12006KT 28/12 A299 RMK A01 T02830121  RH  037%=      5-min Rain = 0
KLA1 210518Z 12006KT 28/12 A299 RMK A01 T02830121  RH  037%=      5-min Rain = 0
KLA1 210519Z 12006KT 28/12 A299 RMK A01 T02830121  RH  037%=      5-min Rain = 0
KLA1 210520Z 12005KT 28/12 A299 RMK A01 T02820121  RH  037%=      5-min Rain = 0
KLA1 210521Z 12006KT 28/12 A299 RMK A01 T02820121  RH  037%=      5-min Rain = 0
KLA1 210522Z 13007KT 28/12 A299 RMK A01 T02820121  RH  037%=      5-min Rain = 0
KLA1 210523Z 13006KT 28/12 A299 RMK A01 T02820121  RH  037%=      5-min Rain = 0
KLA1 210524Z 13006KT 28/12 A299 RMK A01 T02820121  RH  037%=      5-min Rain = 0
KLA1 210525Z 12006KT 28/12 A299 RMK A01 T02810121  RH  037%=      5-min Rain = 0
KLA1 210526Z 12006KT 28/12 A299 RMK A01 T02810121  RH  037%=      5-min Rain = 0
KLA1 210527Z 13007KT 28/12 A299 RMK A01 T02810121  RH  037%=      5-min Rain = 0
KLA1 210528Z 13006KT 28/12 A299 RMK A01 T02800120  RH  037%=      5-min Rain = 0
KLA1 210529Z 13006KT 28/12 A299 RMK A01 T02800120  RH  037%=      5-min Rain = 0
KLA1 210530Z 13007KT 28/12 A299 RMK A01 T02810121  RH  037%=      5-min Rain = 0
KLA1 210531Z 12006KT 28/12 A299 RMK A01 T02790120  RH  037%=      5-min Rain = 0
KLA1 210532Z 12007KT 28/12 A299 RMK A01 T02790121  RH  037%=      5-min Rain = 0
KLA1 210533Z 13006KT 28/12 A299 RMK A01 T02790121  RH  037%=      5-min Rain = 0
KLA1 210534Z 13006KT 28/12 A2991 RMK A01 T02790121  RH  037%=      5-min Rain = 0
KLA1 210535Z 13006KT 28/12 A2991 RMK A01 T02790121  RH  037%=      5-min Rain = 0
KLA1 210536Z 13006KT 28/12 A299 RMK A01 T02780121  RH  038%=      5-min Rain = 0
KLA1 210537Z 13007KT 28/12 A299 RMK A01 T02780120  RH  038%=      5-min Rain = 0
KLA1 210538Z 13007KT 28/12 A299 RMK A01 T02780120  RH  038%=      5-min Rain = 0
KLA1 210539Z 12007KT 28/12 A2991 RMK A01 T02790120  RH  037%=      5-min Rain = 0
KLA1 210540Z 12007KT 28/12 A2991 RMK A01 T02780120  RH  037%=      5-min Rain = 0
KLA1 210541Z 13008KT 28/12 A2991 RMK A01 T02790120  RH  037%=      5-min Rain = 0
KLA1 210542Z 12007KT 28/12 A2991 RMK A01 T02800120  RH  037%=      5-min Rain = 0
KLA1 210543Z 12007KT 28/12 A2991 RMK A01 T02810120  RH  037%=      5-min Rain = 0
KLA1 210544Z 12007KT 28/12 A2991 RMK A01 T02810120  RH  037%=      5-min Rain = 0
KLA1 210545Z 12007KT 28/12 A2991 RMK A01 T02810120  RH  037%=      5-min Rain = 0
KLA1 210546Z 12007KT 28/12 A2991 RMK A01 T02810120  RH  037%=      5-min Rain = 0
KLA1 210547Z 12006KT 28/12 A2991 RMK A01 T02810121  RH  037%=      5-min Rain = 0
KLA1 210548Z 12007KT 28/12 A2991 RMK A01 T02810121  RH  037%=      5-min Rain = 0
KLA1 210549Z 12006KT 28/12 A2991 RMK A01 T02800120  RH  037%=      5-min Rain = 0
KLA1 210550Z 12007KT 28/12 A2991 RMK A01 T02800121  RH  037%=      5-min Rain = 0
KLA1 210551Z 12007KT 28/12 A2991 RMK A01 T02800121  RH  037%=      5-min Rain = 0
KLA1 210552Z 12007KT 28/12 A2991 RMK A01 T02800120  RH  037%=      5-min Rain = 0
KLA1 210553Z 12008KT 28/12 A2991 RMK A01 T02800120  RH  037%=      5-min Rain = 0
KLA1 210554Z 12007KT 28/12 A2991 RMK A01 T02800120  RH  037%=      5-min Rain = 0
KLA1 210555Z 12008KT 28/12 A2991 RMK A01 T02800120  RH  037%=      5-min Rain = 0
KLA1 210556Z 12008KT 28/12 A2991 RMK A01 T02800120  RH  037%=      5-min Rain = 0
KLA1 210557Z 12008KT 28/12 A2991 RMK A01 T02800120  RH  037%=      5-min Rain = 0
KLA1 210558Z 12008G13KT 28/12 A2991 RMK A01 T02810120  RH  037%=      5-min Rain = 0
KLA1 210559Z 13007KT 28/12 A2991 RMK A01 T02820119  RH  037%=      5-min Rain = 0
KLA1 210600Z 12007KT 28/12 A2991 RMK A01 T02820120  RH  036%=      5-min Rain = 0
KLA1 210601Z 12007KT 28/12 A2991 RMK A01 T02830120  RH  036%=      5-min Rain = 0
KLA1 210602Z 12007KT 28/12 A2991 RMK A01 T02830120  RH  036%=      5-min Rain = 0
KLA1 210603Z 12008KT 28/12 A2991 RMK A01 T02820120  RH  037%=      5-min Rain = 0
KLA1 210604Z 12009KT 28/12 A2991 RMK A01 T02820120  RH  037%=      5-min Rain = 0
KLA1 210605Z 12008KT 28/12 A2991 RMK A01 T02820120  RH  037%=      5-min Rain = 0
KLA1 210606Z 12008KT 28/12 A2991 RMK A01 T02810119  RH  037%=      5-min Rain = 0
KLA1 210607Z 12008KT 28/12 A2991 RMK A01 T02810119  RH  037%=      5-min Rain = 0
KLA1 210608Z 11008KT 28/12 A2991 RMK A01 T02820119  RH  037%=      5-min Rain = 0
KLA1 210609Z 12007KT 28/12 A2991 RMK A01 T02810119  RH  037%=      5-min Rain = 0
KLA1 210610Z 13008KT 28/12 A2991 RMK A01 T02820119  RH  037%=      5-min Rain = 0
KLA1 210611Z 12008KT 28/12 A2991 RMK A01 T02810119  RH  036%=      5-min Rain = 0
KLA1 210612Z 12008KT 28/12 A2991 RMK A01 T02820119  RH  036%=      5-min Rain = 0
KLA1 210613Z 13007KT 28/12 A2991 RMK A01 T02820119  RH  036%=      5-min Rain = 0
KLA1 210614Z 12008KT 28/12 A2991 RMK A01 T02820119  RH  036%=      5-min Rain = 0
KLA1 210615Z 12009KT 28/12 A2992 RMK A01 T02820119  RH  037%=      5-min Rain = 0
KLA1 210616Z 13008G13KT 28/12 A2991 RMK A01 T02820119  RH  036%=      5-min Rain = 0
KLA1 210617Z 12007KT 28/12 A2991 RMK A01 T02820119  RH  036%=      5-min Rain = 0
KLA1 210618Z 12008KT 28/12 A2991 RMK A01 T02820119  RH  036%=      5-min Rain = 0
KLA1 210619Z 12009KT 28/12 A2991 RMK A01 T02810119  RH  036%=      5-min Rain = 0
KLA1 210620Z 13011KT 28/12 A2991 RMK A01 T02820119  RH  036%=      5-min Rain = 0
KLA1 210621Z 13010KT 28/12 A2991 RMK A01 T02830119  RH  036%=      5-min Rain = 0
KLA1 210622Z 13009KT 28/12 A2992 RMK A01 T02840119  RH  036%=      5-min Rain = 0
KLA1 210623Z 13010KT 28/12 A2991 RMK A01 T02840118  RH  036%=      5-min Rain = 0
KLA1 210624Z 13007KT 29/12 A2992 RMK A01 T02850119  RH  036%=      5-min Rain = 0
KLA1 210625Z 13009KT 28/12 A2992 RMK A01 T02840119  RH  036%=      5-min Rain = 0
KLA1 210626Z 13008KT 28/12 A2992 RMK A01 T02840119  RH  036%=      5-min Rain = 0
KLA1 210627Z 13008KT 28/12 A2992 RMK A01 T02830119  RH  036%=      5-min Rain = 0
KLA1 210628Z 13009KT 28/12 A2992 RMK A01 T02830119  RH  036%=      5-min Rain = 0
KLA1 210629Z 13008KT 28/12 A2992 RMK A01 T02830119  RH  036%=      5-min Rain = 0
KLA1 210630Z 13008KT 28/12 A2992 RMK A01 T02830119  RH  036%=      5-min Rain = 0
KLA1 210631Z 13008KT 28/12 A2992 RMK A01 T02820119  RH  036%=      5-min Rain = 0
KLA1 210632Z 13008KT 28/12 A2992 RMK A01 T02820119  RH  036%=      5-min Rain = 0
KLA1 210633Z 13008KT 28/12 A2992 RMK A01 T02820119  RH  036%=      5-min Rain = 0
KLA1 210634Z 13010KT 28/12 A2992 RMK A01 T02810118  RH  036%=      5-min Rain = 0
KLA1 210635Z 13007KT 28/12 A2992 RMK A01 T02810118  RH  036%=      5-min Rain = 0
KLA1 210636Z 13008KT 28/12 A2992 RMK A01 T02820118  RH  036%=      5-min Rain = 0
KLA1 210637Z 13007KT 28/12 A2992 RMK A01 T02820118  RH  036%=      5-min Rain = 0
KLA1 210638Z 13008KT 28/12 A2992 RMK A01 T02810118  RH  036%=      5-min Rain = 0
KLA1 210639Z 13007KT 28/12 A2992 RMK A01 T02810118  RH  036%=      5-min Rain = 0
KLA1 210640Z 13007KT 28/12 A2992 RMK A01 T02810118  RH  036%=      5-min Rain = 0
KLA1 210641Z 13007KT 28/12 A2992 RMK A01 T02800118  RH  037%=      5-min Rain = 0
KLA1 210642Z 13009KT 28/12 A2992 RMK A01 T02800118  RH  037%=      5-min Rain = 0
KLA1 210643Z 13009KT 28/12 A2992 RMK A01 T02800118  RH  037%=      5-min Rain = 0
KLA1 210644Z 13007KT 28/12 A2992 RMK A01 T02810118  RH  036%=      5-min Rain = 0
KLA1 210645Z 13008KT 28/12 A2992 RMK A01 T02810118  RH  036%=      5-min Rain = 0
KLA1 210646Z 13009KT 28/12 A2992 RMK A01 T02810118  RH  036%=      5-min Rain = 0
KLA1 210647Z 13009KT 28/12 A2992 RMK A01 T02810118  RH  036%=      5-min Rain = 0
KLA1 210648Z 13009KT 28/12 A2992 RMK A01 T02810117  RH  036%=      5-min Rain = 0
KLA1 210649Z 13007KT 28/12 A2992 RMK A01 T02820117  RH  036%=      5-min Rain = 0
KLA1 210650Z 13009KT 28/12 A2992 RMK A01 T02820118  RH  036%=      5-min Rain = 0
KLA1 210651Z 13010KT 28/12 A2992 RMK A01 T02820117  RH  036%=      5-min Rain = 0
KLA1 210652Z 14011KT 28/12 A2992 RMK A01 T02830117  RH  036%=      5-min Rain = 0
KLA1 210653Z 13009KT 28/12 A2992 RMK A01 T02840118  RH  036%=      5-min Rain = 0
KLA1 210654Z 13009KT 28/12 A2992 RMK A01 T02840117  RH  036%=      5-min Rain = 0
KLA1 210655Z 14009KT 28/12 A2992 RMK A01 T02840117  RH  036%=      5-min Rain = 0
KLA1 210656Z 13009KT 28/12 A2992 RMK A01 T02840118  RH  036%=      5-min Rain = 0
KLA1 210657Z 14008KT 28/12 A2992 RMK A01 T02840118  RH  036%=      5-min Rain = 0
KLA1 210658Z 13009KT 28/12 A2992 RMK A01 T02830118  RH  036%=      5-min Rain = 0
KLA1 210659Z 13010KT 28/12 A2992 RMK A01 T02830118  RH  036%=      5-min Rain = 0
KLA1 210700Z 13009KT 28/12 A2992 RMK A01 T02830118  RH  036%=      5-min Rain = 0
KLA1 210701Z 14009KT 28/12 A2992 RMK A01 T02830117  RH  036%=      5-min Rain = 0
KLA1 210702Z 14009KT 28/12 A2992 RMK A01 T02830118  RH  036%=      5-min Rain = 0
KLA1 210703Z 14009KT 28/12 A2992 RMK A01 T02830117  RH  036%=      5-min Rain = 0
KLA1 210704Z 14009KT 28/12 A2992 RMK A01 T02830118  RH  036%=      5-min Rain = 0
KLA1 210705Z 13011KT 28/12 A2993 RMK A01 T02830118  RH  036%=      5-min Rain = 0
KLA1 210706Z 14010KT 28/12 A2993 RMK A01 T02840117  RH  036%=      5-min Rain = 0
KLA1 210707Z 14009KT 28/12 A2993 RMK A01 T02840118  RH  036%=      5-min Rain = 0
KLA1 210708Z 14009KT 28/12 A2993 RMK A01 T02840118  RH  036%=      5-min Rain = 0
KLA1 210709Z 14012KT 28/12 A2993 RMK A01 T02840118  RH  036%=      5-min Rain = 0
KLA1 210710Z 14011KT 28/12 A2993 RMK A01 T02840118  RH  036%=      5-min Rain = 0
KLA1 210711Z 14011KT 29/12 A2993 RMK A01 T02850119  RH  036%=      5-min Rain = 0
KLA1 210712Z 14012KT 29/12 A2993 RMK A01 T02850119  RH  036%=      5-min Rain = 0
KLA1 210713Z 15016KT 29/12 A2993 RMK A01 T02860119  RH  036%=      5-min Rain = 0
KLA1 210714Z 14012KT 29/12 A2993 RMK A01 T02870120  RH  036%=      5-min Rain = 0
KLA1 210715Z 14011KT 29/12 A2993 RMK A01 T02880120  RH  035%=      5-min Rain = 0
KLA1 210716Z 15012KT 29/12 A2993 RMK A01 T02880121  RH  036%=      5-min Rain = 0
KLA1 210717Z 14010KT 29/12 A2992 RMK A01 T02880121  RH  036%=      5-min Rain = 0
KLA1 210718Z 14013G18KT 29/12 A2992 RMK A01 T02880121  RH  036%=      5-min Rain = 0
KLA1 210719Z 14014KT 29/12 A2992 RMK A01 T02880122  RH  036%=      5-min Rain = 0
KLA1 210720Z 14011KT 29/12 A2992 RMK A01 T02880122  RH  036%=      5-min Rain = 0
KLA1 210721Z 14013KT 29/12 A2992 RMK A01 T02880122  RH  036%=      5-min Rain = 0
KLA1 210722Z 15012KT 29/12 A2992 RMK A01 T02890122  RH  036%=      5-min Rain = 0
KLA1 210723Z 14014KT 29/12 A2992 RMK A01 T02880122  RH  036%=      5-min Rain = 0
KLA1 210724Z 14013KT 29/12 A2992 RMK A01 T02880122  RH  036%=      5-min Rain = 0
KLA1 210725Z 14014KT 29/12 A2992 RMK A01 T02880122  RH  036%=      5-min Rain = 0
KLA1 210726Z 14012G17KT 29/12 A2992 RMK A01 T02880122  RH  036%=      5-min Rain = 0
KLA1 210727Z 14013KT 29/12 A2992 RMK A01 T02880123  RH  036%=      5-min Rain = 0
KLA1 210728Z 14014KT 29/12 A2993 RMK A01 T02880123  RH  036%=      5-min Rain = 0
KLA1 210729Z 14012KT 29/12 A2992 RMK A01 T02880124  RH  036%=      5-min Rain = 0
KLA1 210730Z 14014KT 29/12 A2992 RMK A01 T02880124  RH  036%=      5-min Rain = 0
KLA1 210731Z 14017G22KT 29/12 A2992 RMK A01 T02880124  RH  036%=      5-min Rain = 0
KLA1 210732Z 14014KT 29/13 A2992 RMK A01 T02880125  RH  036%=      5-min Rain = 0
KLA1 210733Z 14016KT 29/13 A2992 RMK A01 T02890125  RH  036%=      5-min Rain = 0
KLA1 210734Z 14012KT 29/12 A2992 RMK A01 T02880124  RH  036%=      5-min Rain = 0
KLA1 210735Z 14016KT 29/13 A2992 RMK A01 T02880125  RH  037%=      5-min Rain = 0
KLA1 210736Z 14014G21KT 29/13 A2992 RMK A01 T02880126  RH  037%=      5-min Rain = 0
KLA1 210737Z 14012KT 29/13 A2992 RMK A01 T02880127  RH  037%=      5-min Rain = 0
KLA1 210738Z 14010G16KT 29/13 A2992 RMK A01 T02870126  RH  037%=      5-min Rain = 0
KLA1 210739Z 14012KT 29/13 A2992 RMK A01 T02870127  RH  037%=      5-min Rain = 0
KLA1 210740Z 14012G17KT 29/13 A2992 RMK A01 T02860127  RH  037%=      5-min Rain = 0
KLA1 210741Z 13013G18KT 29/13 A2992 RMK A01 T02860127  RH  038%=      5-min Rain = 0
KLA1 210742Z 14013KT 29/13 A2992 RMK A01 T02850127  RH  038%=      5-min Rain = 0
KLA1 210743Z 14013KT 29/13 A2992 RMK A01 T02850127  RH  038%=      5-min Rain = 0
KLA1 210744Z 14011G16KT 29/13 A2992 RMK A01 T02850128  RH  038%=      5-min Rain = 0
KLA1 210745Z 15013G20KT 28/13 A2992 RMK A01 T02840129  RH  038%=      5-min Rain = 0
KLA1 210746Z 14012KT 29/13 A2992 RMK A01 T02850129  RH  038%=      5-min Rain = 0
KLA1 210747Z 14013G18KT 29/13 A2992 RMK A01 T02850129  RH  038%=      5-min Rain = 0
KLA1 210748Z 14013G19KT 28/13 A2992 RMK A01 T02840129  RH  038%=      5-min Rain = 0
KLA1 210749Z 15016G21KT 28/13 A2992 RMK A01 T02840130  RH  039%=      5-min Rain = 0
KLA1 210750Z 14015G21KT 29/13 A2992 RMK A01 T02850131  RH  039%=      5-min Rain = 0
KLA1 210751Z 14013G18KT 29/13 A2992 RMK A01 T02850130  RH  039%=      5-min Rain = 0
KLA1 210752Z 14011KT 28/13 A2992 RMK A01 T02840130  RH  039%=      5-min Rain = 0
KLA1 210753Z 14013KT 28/13 A2992 RMK A01 T02830131  RH  039%=      5-min Rain = 0
KLA1 210754Z 15014KT 28/13 A2992 RMK A01 T02830132  RH  039%=      5-min Rain = 0
KLA1 210755Z 14012KT 28/13 A2992 RMK A01 T02830132  RH  039%=      5-min Rain = 0
KLA1 210756Z 14016G21KT 28/13 A2992 RMK A01 T02830132  RH  040%=      5-min Rain = 0
KLA1 210757Z 14013KT 28/13 A2992 RMK A01 T02830133  RH  040%=      5-min Rain = 0
KLA1 210758Z 14015KT 28/13 A2992 RMK A01 T02830133  RH  040%=      5-min Rain = 0
KLA1 210759Z 14013KT 28/13 A2992 RMK A01 T02830133  RH  040%=      5-min Rain = 0
KLA1 210800Z 14013KT 28/13 A2992 RMK A01 T02830133  RH  040%=      5-min Rain = 0
KLA1 210801Z 15015KT 28/13 A2992 RMK A01 T02820134  RH  040%=      5-min Rain = 0
KLA1 210802Z 14012G18KT 28/13 A2992 RMK A01 T02820134  RH  040%=      5-min Rain = 0
KLA1 210803Z 14011KT 28/13 A2992 RMK A01 T02810134  RH  040%=      5-min Rain = 0
KLA1 210804Z 13012KT 28/13 A2992 RMK A01 T02810134  RH  040%=      5-min Rain = 0
KLA1 210805Z 14011KT 28/14 A2992 RMK A01 T02800135  RH  041%=      5-min Rain = 0
KLA1 210806Z 14015KT 28/14 A2992 RMK A01 T02800135  RH  041%=      5-min Rain = 0
KLA1 210807Z 14014G20KT 28/14 A2992 RMK A01 T02800136  RH  041%=      5-min Rain = 0
KLA1 210808Z 14015KT 28/14 A2992 RMK A01 T02800136  RH  041%=      5-min Rain = 0
KLA1 210809Z 14014KT 28/14 A2992 RMK A01 T02800137  RH  041%=      5-min Rain = 0
KLA1 210810Z 14012KT 28/14 A2992 RMK A01 T02800137  RH  041%=      5-min Rain = 0
KLA1 210811Z 14016KT 28/14 A2992 RMK A01 T02800138  RH  042%=      5-min Rain = 0
KLA1 210812Z 14013KT 28/14 A2992 RMK A01 T02800138  RH  042%=      5-min Rain = 0
KLA1 210813Z 15016KT 28/14 A2992 RMK A01 T02800138  RH  042%=      5-min Rain = 0
KLA1 210814Z 14012KT 28/14 A2992 RMK A01 T02800138  RH  042%=      5-min Rain = 0
KLA1 210815Z 14015KT 28/14 A2992 RMK A01 T02790139  RH  042%=      5-min Rain = 0
KLA1 210816Z 13009KT 28/14 A2992 RMK A01 T02790139  RH  042%=      5-min Rain = 0
KLA1 210817Z 14013G20KT 28/14 A2992 RMK A01 T02780139  RH  042%=      5-min Rain = 0
KLA1 210818Z 14012KT 28/14 A2992 RMK A01 T02780139  RH  043%=      5-min Rain = 0
KLA1 210819Z 14013G18KT 28/14 A2992 RMK A01 T02770140  RH  043%=      5-min Rain = 0
KLA1 210820Z 14014KT 28/14 A2992 RMK A01 T02760140  RH  043%=      5-min Rain = 0
KLA1 210821Z 13011KT 28/14 A2992 RMK A01 T02770140  RH  043%=      5-min Rain = 0
KLA1 210822Z 13010KT 28/14 A2992 RMK A01 T02770140  RH  043%=      5-min Rain = 0
KLA1 210823Z 14013G18KT 28/14 A2992 RMK A01 T02760141  RH  043%=      5-min Rain = 0
KLA1 210824Z 14015G21KT 28/14 A2992 RMK A01 T02760141  RH  044%=      5-min Rain = 0
KLA1 210825Z 14013KT 28/14 A2992 RMK A01 T02760142  RH  044%=      5-min Rain = 0
KLA1 210826Z 14012KT 28/14 A2992 RMK A01 T02760143  RH  044%=      5-min Rain = 0
KLA1 210827Z 14015KT 28/14 A2992 RMK A01 T02760142  RH  044%=      5-min Rain = 0
KLA1 210828Z 13013G18KT 28/14 A2992 RMK A01 T02760143  RH  044%=      5-min Rain = 0
KLA1 210829Z 14013G19KT 28/14 A2992 RMK A01 T02760143  RH  044%=      5-min Rain = 0
KLA1 210830Z 14015KT 28/14 A2992 RMK A01 T02760143  RH  044%=      5-min Rain = 0
KLA1 210831Z 14018G24KT 28/14 A2992 RMK A01 T02760143  RH  044%=      5-min Rain = 0
KLA1 210832Z 14018KT 28/14 A2992 RMK A01 T02770144  RH  044%=      5-min Rain = 0
KLA1 210833Z 14017KT 28/14 A2992 RMK A01 T02770144  RH  044%=      5-min Rain = 0
KLA1 210834Z 14014KT 28/14 A2992 RMK A01 T02770144  RH  044%=      5-min Rain = 0
KLA1 210835Z 14013G19KT 28/15 A2992 RMK A01 T02770145  RH  044%=      5-min Rain = 0
KLA1 210836Z 14014G21KT 28/15 A2992 RMK A01 T02770145  RH  044%=      5-min Rain = 0
KLA1 210837Z 14015KT 28/15 A2992 RMK A01 T02760145  RH  045%=      5-min Rain = 0
KLA1 210838Z 13016G22KT 28/15 A2992 RMK A01 T02760145  RH  045%=      5-min Rain = 0
KLA1 210839Z 13018G23KT 28/15 A2992 RMK A01 T02760146  RH  045%=      5-min Rain = 0
KLA1 210840Z 14014G19KT 28/15 A2992 RMK A01 T02750145  RH  045%=      5-min Rain = 0
KLA1 210841Z 14014G19KT 28/15 A2992 RMK A01 T02760146  RH  045%=      5-min Rain = 0
KLA1 210842Z 13014G19KT 28/15 A2992 RMK A01 T02750146  RH  045%=      5-min Rain = 0
KLA1 210843Z 14010G15KT 28/15 A2992 RMK A01 T02750146  RH  045%=      5-min Rain = 0
KLA1 210844Z 13013KT 27/15 A2992 RMK A01 T02740146  RH  046%=      5-min Rain = 0
KLA1 210845Z 14014KT 27/15 A2992 RMK A01 T02730146  RH  046%=      5-min Rain = 0
KLA1 210846Z 14017KT 27/15 A2992 RMK A01 T02730146  RH  046%=      5-min Rain = 0
KLA1 210847Z 14015KT 27/15 A2992 RMK A01 T02730146  RH  046%=      5-min Rain = 0
KLA1 210848Z 14013KT 27/15 A2992 RMK A01 T02740147  RH  046%=      5-min Rain = 0
KLA1 210849Z 14015G21KT 27/15 A2992 RMK A01 T02730147  RH  046%=      5-min Rain = 0
KLA1 210850Z 14012KT 27/15 A2992 RMK A01 T02740147  RH  046%=      5-min Rain = 0
KLA1 210851Z 14012KT 27/15 A2992 RMK A01 T02730147  RH  046%=      5-min Rain = 0
KLA1 210852Z 13010KT 27/15 A2992 RMK A01 T02730147  RH  046%=      5-min Rain = 0
KLA1 210853Z 13013KT 27/15 A2992 RMK A01 T02720147  RH  046%=      5-min Rain = 0
KLA1 210854Z 14015KT 27/15 A2992 RMK A01 T02710147  RH  046%=      5-min Rain = 0
KLA1 210855Z 14010KT 27/15 A2992 RMK A01 T02710147  RH  047%=      5-min Rain = 0
KLA1 210856Z 13011G16KT 27/15 A2992 RMK A01 T02720148  RH  047%=      5-min Rain = 0
KLA1 210857Z 14013KT 27/15 A2992 RMK A01 T02710148  RH  047%=      5-min Rain = 0
KLA1 210858Z 14013G18KT 27/15 A2992 RMK A01 T02710148  RH  047%=      5-min Rain = 0
KLA1 210859Z 14014KT 27/15 A2992 RMK A01 T02710148  RH  047%=      5-min Rain = 0
KLA1 210900Z 14014KT 27/15 A2992 RMK A01 T02710148  RH  047%=      5-min Rain = 0
KLA1 210901Z 13011G16KT 27/15 A2992 RMK A01 T02710148  RH  047%=      5-min Rain = 0
KLA1 210902Z 13012KT 27/15 A2992 RMK A01 T02710149  RH  047%=      5-min Rain = 0
KLA1 210903Z 14013KT 27/15 A2992 RMK A01 T02700149  RH  047%=      5-min Rain = 0
KLA1 210904Z 14014KT 27/15 A2992 RMK A01 T02700149  RH  047%=      5-min Rain = 0
KLA1 210905Z 13014KT 27/15 A2992 RMK A01 T02700149  RH  047%=      5-min Rain = 0
KLA1 210906Z 13012KT 27/15 A2992 RMK A01 T02700149  RH  047%=      5-min Rain = 0
KLA1 210907Z 13013KT 27/15 A2992 RMK A01 T02700149  RH  047%=      5-min Rain = 0
KLA1 210908Z 14012KT 27/15 A2992 RMK A01 T02690149  RH  048%=      5-min Rain = 0
KLA1 210909Z 13012KT 27/15 A2992 RMK A01 T02690149  RH  048%=      5-min Rain = 0
KLA1 210910Z 14011KT 27/15 A2992 RMK A01 T02680149  RH  048%=      5-min Rain = 0
KLA1 210911Z 13010KT 27/15 A2992 RMK A01 T02680149  RH  048%=      5-min Rain = 0
KLA1 210912Z 14012KT 27/15 A2992 RMK A01 T02680150  RH  048%=      5-min Rain = 0
KLA1 210913Z 14015KT 27/15 A2992 RMK A01 T02680150  RH  048%=      5-min Rain = 0
KLA1 210914Z 14013KT 27/15 A2992 RMK A01 T02670150  RH  048%=      5-min Rain = 0
KLA1 210915Z 13011G16KT 27/15 A2992 RMK A01 T02680150  RH  048%=      5-min Rain = 0
KLA1 210916Z 13012KT 27/15 A2992 RMK A01 T02670149  RH  048%=      5-min Rain = 0
KLA1 210917Z 13012G17KT 27/15 A2992 RMK A01 T02670150  RH  049%=      5-min Rain = 0
KLA1 210918Z 13010KT 27/15 A2992 RMK A01 T02670150  RH  049%=      5-min Rain = 0
KLA1 210919Z 14015G21KT 27/15 A2992 RMK A01 T02670150  RH  049%=      5-min Rain = 0
KLA1 210920Z 13012KT 27/15 A2992 RMK A01 T02670150  RH  049%=      5-min Rain = 0
KLA1 210921Z 14014KT 27/15 A2992 RMK A01 T02670151  RH  049%=      5-min Rain = 0
KLA1 210922Z 13012KT 27/15 A2992 RMK A01 T02670151  RH  049%=      5-min Rain = 0
KLA1 210923Z 14013KT 27/15 A2992 RMK A01 T02670151  RH  049%=      5-min Rain = 0
KLA1 210924Z 13012KT 27/15 A2992 RMK A01 T02670151  RH  049%=      5-min Rain = 0
KLA1 210925Z 13013KT 27/15 A2992 RMK A01 T02670151  RH  049%=      5-min Rain = 0
KLA1 210926Z 14012KT 27/15 A2992 RMK A01 T02660151  RH  049%=      5-min Rain = 0
KLA1 210927Z 14013KT 27/15 A2992 RMK A01 T02670151  RH  049%=      5-min Rain = 0
KLA1 210928Z 13015G21KT 27/15 A2992 RMK A01 T02660151  RH  049%=      5-min Rain = 0
KLA1 210929Z 14013KT 27/15 A2992 RMK A01 T02670152  RH  049%=      5-min Rain = 0
KLA1 210930Z 14009KT 27/15 A2992 RMK A01 T02660151  RH  049%=      5-min Rain = 0
KLA1 210931Z 13013KT 27/15 A2992 RMK A01 T02660152  RH  049%=      5-min Rain = 0
KLA1 210932Z 13009KT 27/15 A2992 RMK A01 T02660152  RH  050%=      5-min Rain = 0
KLA1 210933Z 14010KT 27/15 A2992 RMK A01 T02650152  RH  050%=      5-min Rain = 0
KLA1 210934Z 14010KT 27/15 A2992 RMK A01 T02650152  RH  050%=      5-min Rain = 0
KLA1 210935Z 14008KT 26/15 A2992 RMK A01 T02640152  RH  050%=      5-min Rain = 0
KLA1 210936Z 13012G17KT 26/15 A2992 RMK A01 T02630152  RH  050%=      5-min Rain = 0
KLA1 210937Z 14014KT 26/15 A2992 RMK A01 T02620151  RH  050%=      5-min Rain = 0
KLA1 210938Z 13011KT 26/15 A2992 RMK A01 T02630152  RH  050%=      5-min Rain = 0
KLA1 210939Z 13008KT 26/15 A2992 RMK A01 T02630152  RH  050%=      5-min Rain = 0
KLA1 210940Z 14010KT 26/15 A2992 RMK A01 T02630152  RH  050%=      5-min Rain = 0
KLA1 210941Z 13010KT 26/15 A2992 RMK A01 T02630152  RH  051%=      5-min Rain = 0
KLA1 210942Z 14011G16KT 26/15 A2992 RMK A01 T02620152  RH  051%=      5-min Rain = 0
KLA1 210943Z 13012KT 26/15 A2992 RMK A01 T02620152  RH  051%=      5-min Rain = 0
KLA1 210944Z 13010KT 26/15 A2992 RMK A01 T02620152  RH  051%=      5-min Rain = 0
KLA1 210945Z 14012G18KT 26/15 A2992 RMK A01 T02620152  RH  051%=      5-min Rain = 0
KLA1 210946Z 14012KT 26/15 A2992 RMK A01 T02620152  RH  051%=      5-min Rain = 0
KLA1 210947Z 13010KT 26/15 A2992 RMK A01 T02620152  RH  051%=      5-min Rain = 0
KLA1 210948Z 13009KT 26/15 A2992 RMK A01 T02620152  RH  051%=      5-min Rain = 0
KLA1 210949Z 14011KT 26/15 A2992 RMK A01 T02620152  RH  051%=      5-min Rain = 0
KLA1 210950Z 14012KT 26/15 A2992 RMK A01 T02620152  RH  051%=      5-min Rain = 0
KLA1 210951Z 14012G17KT 26/15 A2992 RMK A01 T02620152  RH  051%=      5-min Rain = 0
KLA1 210952Z 13010KT 26/15 A2992 RMK A01 T02620152  RH  051%=      5-min Rain = 0
KLA1 210953Z 14010KT 26/15 A2992 RMK A01 T02610152  RH  051%=      5-min Rain = 0
KLA1 210954Z 14010KT 26/15 A2992 RMK A01 T02610152  RH  051%=      5-min Rain = 0
KLA1 210955Z 13010KT 26/15 A2992 RMK A01 T02600151  RH  051%=      5-min Rain = 0
KLA1 210956Z 13009KT 26/15 A2992 RMK A01 T02600151  RH  051%=      5-min Rain = 0
KLA1 210957Z 13011KT 26/15 A2992 RMK A01 T02600151  RH  051%=      5-min Rain = 0
KLA1 210958Z 14011KT 26/15 A2992 RMK A01 T02600152  RH  051%=      5-min Rain = 0
KLA1 210959Z 14011KT 26/15 A2992 RMK A01 T02600151  RH  051%=      5-min Rain = 0
KLA1 211000Z 14010KT 26/15 A2992 RMK A01 T02600151  RH  051%=      5-min Rain = 0
KLA1 211001Z 14009KT 26/15 A2992 RMK A01 T02590151  RH  051%=      5-min Rain = 0
KLA1 211002Z 13010KT 26/15 A2992 RMK A01 T02590151  RH  051%=      5-min Rain = 0
KLA1 211003Z 14011KT 26/15 A2992 RMK A01 T02580151  RH  051%=      5-min Rain = 0
KLA1 211004Z 13009KT 26/15 A2992 RMK A01 T02580151  RH  051%=      5-min Rain = 0
KLA1 211005Z 13009KT 26/15 A2992 RMK A01 T02580150  RH  051%=      5-min Rain = 0
KLA1 211006Z 13008G13KT 26/15 A2992 RMK A01 T02580150  RH  051%=      5-min Rain = 0
KLA1 211007Z 13011KT 26/15 A2992 RMK A01 T02580150  RH  051%=      5-min Rain = 0
KLA1 211008Z 13011KT 26/15 A2992 RMK A01 T02580150  RH  051%=      5-min Rain = 0
KLA1 211009Z 13010KT 26/15 A2992 RMK A01 T02580150  RH  051%=      5-min Rain = 0
KLA1 211010Z 14009KT 26/15 A2992 RMK A01 T02580150  RH  051%=      5-min Rain = 0
KLA1 211011Z 14009KT 26/15 A2992 RMK A01 T02570150  RH  051%=      5-min Rain = 0
KLA1 211012Z 14008KT 26/15 A2992 RMK A01 T02570150  RH  052%=      5-min Rain = 0
KLA1 211013Z 13009KT 26/15 A2992 RMK A01 T02570150  RH  052%=      5-min Rain = 0
KLA1 211014Z 12008KT 26/15 A2992 RMK A01 T02560150  RH  052%=      5-min Rain = 0
KLA1 211015Z 13010KT 26/15 A2992 RMK A01 T02560150  RH  052%=      5-min Rain = 0
KLA1 211016Z 12008KT 26/15 A2992 RMK A01 T02560150  RH  052%=      5-min Rain = 0
KLA1 211017Z 14009KT 26/15 A2992 RMK A01 T02560150  RH  052%=      5-min Rain = 0
KLA1 211018Z 12010G15KT 26/15 A2992 RMK A01 T02560150  RH  052%=      5-min Rain = 0
KLA1 211019Z 13013KT 26/15 A2992 RMK A01 T02560149  RH  052%=      5-min Rain = 0
KLA1 211020Z 13011KT 26/15 A2992 RMK A01 T02560149  RH  052%=      5-min Rain = 0
KLA1 211021Z 13009G14KT 26/15 A2992 RMK A01 T02560149  RH  051%=      5-min Rain = 0
KLA1 211022Z 13010KT 26/15 A2992 RMK A01 T02560149  RH  051%=      5-min Rain = 0
KLA1 211023Z 13010KT 26/15 A2992 RMK A01 T02560149  RH  051%=      5-min Rain = 0
KLA1 211024Z 13009KT 26/15 A2992 RMK A01 T02560149  RH  052%=      5-min Rain = 0
KLA1 211025Z 13011KT 26/15 A2992 RMK A01 T02560149  RH  052%=      5-min Rain = 0
KLA1 211026Z 13010KT 26/15 A2992 RMK A01 T02560149  RH  052%=      5-min Rain = 0
KLA1 211027Z 13008KT 26/15 A2992 RMK A01 T02560149  RH  052%=      5-min Rain = 0
KLA1 211028Z 13007KT 26/15 A2992 RMK A01 T02550149  RH  052%=      5-min Rain = 0
KLA1 211029Z 13008KT 25/15 A2992 RMK A01 T02540149  RH  052%=      5-min Rain = 0
KLA1 211030Z 12008KT 25/15 A2992 RMK A01 T02540149  RH  052%=      5-min Rain = 0
KLA1 211031Z 13011KT 25/15 A2992 RMK A01 T02530149  RH  052%=      5-min Rain = 0
KLA1 211032Z 13008KT 25/15 A2992 RMK A01 T02530149  RH  052%=      5-min Rain = 0
KLA1 211033Z 13009G14KT 25/15 A2992 RMK A01 T02530149  RH  052%=      5-min Rain = 0
KLA1 211034Z 13010KT 25/15 A2992 RMK A01 T02530149  RH  053%=      5-min Rain = 0
KLA1 211035Z 13008KT 25/15 A2992 RMK A01 T02530149  RH  052%=      5-min Rain = 0
KLA1 211036Z 13009KT 25/15 A2992 RMK A01 T02530149  RH  052%=      5-min Rain = 0
KLA1 211037Z 13009KT 25/15 A2992 RMK A01 T02530149  RH  052%=      5-min Rain = 0
KLA1 211038Z 12008KT 25/15 A2992 RMK A01 T02530150  RH  053%=      5-min Rain = 0
KLA1 211039Z 12007KT 25/15 A2992 RMK A01 T02530149  RH  053%=      5-min Rain = 0
KLA1 211040Z 13010KT 25/15 A2993 RMK A01 T02530149  RH  053%=      5-min Rain = 0
KLA1 211041Z 13006KT 25/15 A2993 RMK A01 T02530149  RH  053%=      5-min Rain = 0
KLA1 211042Z 13005KT 25/15 A2993 RMK A01 T02520149  RH  053%=      5-min Rain = 0
KLA1 211043Z 13007KT 25/15 A2993 RMK A01 T02520149  RH  053%=      5-min Rain = 0
KLA1 211044Z 13009KT 25/15 A2993 RMK A01 T02510149  RH  053%=      5-min Rain = 0
KLA1 211045Z 12006KT 25/15 A2993 RMK A01 T02510150  RH  053%=      5-min Rain = 0
KLA1 211046Z 12006KT 25/15 A2993 RMK A01 T02510149  RH  053%=      5-min Rain = 0
KLA1 211047Z 12005KT 25/15 A2993 RMK A01 T02500149  RH  053%=      5-min Rain = 0
KLA1 211048Z 13006KT 25/15 A2993 RMK A01 T02500149  RH  053%=      5-min Rain = 0
KLA1 211049Z 12007KT 25/15 A2993 RMK A01 T02500149  RH  054%=      5-min Rain = 0
KLA1 211050Z 13006KT 25/15 A2993 RMK A01 T02500149  RH  053%=      5-min Rain = 0
KLA1 211051Z 13007KT 25/15 A2993 RMK A01 T02500149  RH  053%=      5-min Rain = 0
KLA1 211052Z 12007KT 25/15 A2993 RMK A01 T02500149  RH  053%=      5-min Rain = 0
KLA1 211053Z 12007KT 25/15 A2993 RMK A01 T02500149  RH  053%=      5-min Rain = 0
KLA1 211054Z 13006G12KT 25/15 A2993 RMK A01 T02500149  RH  053%=      5-min Rain = 0
KLA1 211055Z 13010KT 25/15 A2993 RMK A01 T02500149  RH  053%=      5-min Rain = 0
KLA1 211056Z 13006KT 25/15 A2993 RMK A01 T02500148  RH  053%=      5-min Rain = 0
KLA1 211057Z 12007KT 25/15 A2993 RMK A01 T02500148  RH  053%=      5-min Rain = 0
KLA1 211058Z 12006KT 25/15 A2993 RMK A01 T02500148  RH  053%=      5-min Rain = 0
KLA1 211059Z 12006KT 25/15 A2993 RMK A01 T02500148  RH  053%=      5-min Rain = 0
KLA1 211100Z 12006KT 25/15 A2993 RMK A01 T02500148  RH  053%=      5-min Rain = 0
KLA1 211101Z 13005KT 25/15 A2993 RMK A01 T02500148  RH  053%=      5-min Rain = 0
KLA1 211102Z 13004KT 25/15 A2993 RMK A01 T02500148  RH  053%=      5-min Rain = 0
KLA1 211103Z 12005KT 25/15 A2993 RMK A01 T02490148  RH  053%=      5-min Rain = 0
KLA1 211104Z 12005KT 25/15 A2993 RMK A01 T02490148  RH  053%=      5-min Rain = 0
KLA1 211105Z 12007G12KT 25/15 A2993 RMK A01 T02490148  RH  053%=      5-min Rain = 0
KLA1 211106Z 13009KT 25/15 A2994 RMK A01 T02490147  RH  053%=      5-min Rain = 0
KLA1 211107Z 14009KT 25/15 A2994 RMK A01 T02490147  RH  053%=      5-min Rain = 0
KLA1 211108Z 14009KT 25/15 A2993 RMK A01 T02490147  RH  053%=      5-min Rain = 0
KLA1 211109Z 13005KT 25/15 A2993 RMK A01 T02490147  RH  053%=      5-min Rain = 0
KLA1 211110Z 13007KT 25/15 A2993 RMK A01 T02490147  RH  053%=      5-min Rain = 0
KLA1 211111Z 14007KT 25/15 A2993 RMK A01 T02490147  RH  053%=      5-min Rain = 0
KLA1 211112Z 12005KT 25/15 A2993 RMK A01 T02480147  RH  053%=      5-min Rain = 0
KLA1 211113Z 13006KT 25/15 A2993 RMK A01 T02480147  RH  053%=      5-min Rain = 0
KLA1 211114Z 13005KT 25/15 A2993 RMK A01 T02470147  RH  053%=      5-min Rain = 0
KLA1 211115Z 13007KT 25/15 A2993 RMK A01 T02470147  RH  054%=      5-min Rain = 0
KLA1 211116Z 13005KT 25/15 A2993 RMK A01 T02470146  RH  054%=      5-min Rain = 0
KLA1 211117Z 12006KT 25/15 A2993 RMK A01 T02470146  RH  054%=      5-min Rain = 0
KLA1 211118Z 13008KT 25/15 A2993 RMK A01 T02470147  RH  054%=      5-min Rain = 0
KLA1 211119Z 14007KT 25/15 A2993 RMK A01 T02470146  RH  054%=      5-min Rain = 0
KLA1 211120Z 13007KT 25/15 A2993 RMK A01 T02470147  RH  054%=      5-min Rain = 0
KLA1 211121Z 13005KT 25/15 A2993 RMK A01 T02460147  RH  054%=      5-min Rain = 0
KLA1 211122Z 13005KT 25/15 A2993 RMK A01 T02460146  RH  054%=      5-min Rain = 0
KLA1 211123Z 13007G12KT 25/15 A2993 RMK A01 T02450146  RH  054%=      5-min Rain = 0
KLA1 211124Z 12007KT 25/15 A2993 RMK A01 T02450146  RH  054%=      5-min Rain = 0
KLA1 211125Z 12007KT 25/15 A2993 RMK A01 T02450146  RH  054%=      5-min Rain = 0
KLA1 211126Z 13007KT 25/15 A2993 RMK A01 T02450146  RH  054%=      5-min Rain = 0
KLA1 211127Z 13008KT 25/15 A2993 RMK A01 T02460147  RH  054%=      5-min Rain = 0
KLA1 211128Z 12006KT 25/15 A2993 RMK A01 T02450146  RH  054%=      5-min Rain = 0
KLA1 211129Z 13006KT 25/15 A2993 RMK A01 T02450147  RH  054%=      5-min Rain = 0
KLA1 211130Z 12008KT 25/15 A2993 RMK A01 T02450146  RH  054%=      5-min Rain = 0
KLA1 211131Z 11004KT 25/15 A2994 RMK A01 T02450146  RH  054%=      5-min Rain = 0
KLA1 211132Z 12005KT 25/15 A2994 RMK A01 T02450146  RH  054%=      5-min Rain = 0
KLA1 211133Z 12004KT 25/15 A2994 RMK A01 T02450147  RH  054%=      5-min Rain = 0
KLA1 211134Z 12006KT 24/15 A2994 RMK A01 T02440147  RH  054%=      5-min Rain = 0
KLA1 211135Z 13007KT 24/15 A2994 RMK A01 T02440146  RH  055%=      5-min Rain = 0
KLA1 211136Z 12006KT 24/15 A2994 RMK A01 T02440146  RH  054%=      5-min Rain = 0
KLA1 211137Z 12006KT 24/15 A2994 RMK A01 T02440146  RH  054%=      5-min Rain = 0
KLA1 211138Z 13008KT 24/15 A2994 RMK A01 T02440147  RH  055%=      5-min Rain = 0
KLA1 211139Z 13006KT 24/15 A2994 RMK A01 T02440146  RH  054%=      5-min Rain = 0
KLA1 211140Z 13007KT 24/15 A2994 RMK A01 T02440146  RH  054%=      5-min Rain = 0
KLA1 211141Z 13007KT 25/15 A2994 RMK A01 T02450147  RH  055%=      5-min Rain = 0
KLA1 211142Z 13006KT 24/15 A2994 RMK A01 T02440147  RH  055%=      5-min Rain = 0
KLA1 211143Z 13005KT 24/15 A2994 RMK A01 T02440147  RH  055%=      5-min Rain = 0
KLA1 211144Z 13008KT 24/15 A2994 RMK A01 T02430147  RH  055%=      5-min Rain = 0
KLA1 211145Z 13006KT 24/15 A2994 RMK A01 T02430147  RH  055%=      5-min Rain = 0
KLA1 211146Z 13007KT 24/15 A2994 RMK A01 T02430147  RH  055%=      5-min Rain = 0
KLA1 211147Z 13006KT 24/15 A2994 RMK A01 T02430147  RH  055%=      5-min Rain = 0
KLA1 211148Z 13006KT 24/15 A2994 RMK A01 T02430147  RH  055%=      5-min Rain = 0
KLA1 211149Z 13005KT 24/15 A2994 RMK A01 T02430147  RH  055%=      5-min Rain = 0
KLA1 211150Z 13007KT 24/15 A2994 RMK A01 T02420147  RH  055%=      5-min Rain = 0
KLA1 211151Z 13010KT 24/15 A2994 RMK A01 T02420148  RH  056%=      5-min Rain = 0
KLA1 211152Z 13009KT 24/15 A2994 RMK A01 T02420148  RH  056%=      5-min Rain = 0
KLA1 211153Z 13008KT 24/15 A2994 RMK A01 T02430148  RH  055%=      5-min Rain = 0
KLA1 211154Z 13006KT 24/15 A2994 RMK A01 T02440148  RH  055%=      5-min Rain = 0
KLA1 211155Z 13006KT 24/15 A2994 RMK A01 T02430148  RH  055%=      5-min Rain = 0
KLA1 211156Z 12006KT 24/15 A2994 RMK A01 T02430148  RH  055%=      5-min Rain = 0
KLA1 211157Z 13008KT 24/15 A2994 RMK A01 T02430148  RH  056%=      5-min Rain = 0
KLA1 211158Z 13006KT 24/15 A2994 RMK A01 T02430149  RH  056%=      5-min Rain = 0
KLA1 211159Z 13006KT 24/15 A2994 RMK A01 T02420149  RH  056%=      5-min Rain = 0
KLA1 211200Z 13006KT 24/15 A2994 RMK A01 T02410148  RH  056%=      5-min Rain = 0
KLA1 211201Z 13008KT 24/15 A2994 RMK A01 T02410149  RH  056%=      5-min Rain = 0
KLA1 211202Z 14007KT 24/15 A2994 RMK A01 T02410149  RH  056%=      5-min Rain = 0
KLA1 211203Z 13006KT 24/15 A2994 RMK A01 T02410149  RH  056%=      5-min Rain = 0
KLA1 211204Z 13006KT 24/15 A2994 RMK A01 T02410149  RH  056%=      5-min Rain = 0
KLA1 211205Z 13006KT 24/15 A2994 RMK A01 T02410149  RH  056%=      5-min Rain = 0
KLA1 211206Z 14006KT 24/15 A2994 RMK A01 T02410149  RH  056%=      5-min Rain = 0
KLA1 211207Z 14007KT 24/15 A2994 RMK A01 T02410150  RH  056%=      5-min Rain = 0
KLA1 211208Z 14006KT 24/15 A2994 RMK A01 T02410149  RH  057%=      5-min Rain = 0
KLA1 211209Z 14006KT 24/15 A2994 RMK A01 T02400150  RH  057%=      5-min Rain = 0
KLA1 211210Z 14004KT 24/15 A2994 RMK A01 T02410150  RH  057%=      5-min Rain = 0
KLA1 211211Z 14005KT 24/15 A2994 RMK A01 T02400150  RH  057%=      5-min Rain = 0
KLA1 211212Z 14006KT 24/15 A2994 RMK A01 T02400150  RH  057%=      5-min Rain = 0
KLA1 211213Z 14005KT 24/15 A2994 RMK A01 T02400150  RH  057%=      5-min Rain = 0
KLA1 211214Z 14005KT 24/15 A2994 RMK A01 T02400150  RH  057%=      5-min Rain = 0
KLA1 211215Z 14006KT 24/15 A2995 RMK A01 T02390150  RH  057%=      5-min Rain = 0
KLA1 211216Z 14005KT 24/15 A2995 RMK A01 T02400150  RH  057%=      5-min Rain = 0
KLA1 211217Z 13005KT 24/15 A2995 RMK A01 T02400151  RH  057%=      5-min Rain = 0
KLA1 211218Z 13005KT 24/15 A2995 RMK A01 T02400151  RH  058%=      5-min Rain = 0
KLA1 211219Z 13006KT 24/15 A2995 RMK A01 T02390151  RH  058%=      5-min Rain = 0
KLA1 211220Z 13006KT 24/15 A2995 RMK A01 T02390151  RH  058%=      5-min Rain = 0
KLA1 211221Z 13005KT 24/15 A2995 RMK A01 T02390151  RH  058%=      5-min Rain = 0
KLA1 211222Z 13004KT 24/15 A2995 RMK A01 T02390152  RH  058%=      5-min Rain = 0
KLA1 211223Z 13005KT 24/15 A2995 RMK A01 T02390152  RH  058%=      5-min Rain = 0
KLA1 211224Z 13006KT 24/15 A2995 RMK A01 T02390152  RH  058%=      5-min Rain = 0
KLA1 211225Z 13005KT 24/15 A2995 RMK A01 T02390152  RH  058%=      5-min Rain = 0
KLA1 211226Z 12005KT 24/15 A2995 RMK A01 T02390152  RH  058%=      5-min Rain = 0
KLA1 211227Z 13005KT 24/15 A2995 RMK A01 T02390152  RH  058%=      5-min Rain = 0
KLA1 211228Z 13006KT 24/15 A2995 RMK A01 T02390153  RH  058%=      5-min Rain = 0
KLA1 211229Z 13006KT 24/15 A2995 RMK A01 T02390153  RH  059%=      5-min Rain = 0
KLA1 211230Z 13005KT 24/15 A2995 RMK A01 T02390153  RH  059%=      5-min Rain = 0
KLA1 211231Z 13005KT 24/15 A2995 RMK A01 T02390153  RH  059%=      5-min Rain = 0
KLA1 211232Z 13006KT 24/15 A2995 RMK A01 T02390153  RH  059%=      5-min Rain = 0
KLA1 211233Z 12006KT 24/15 A2995 RMK A01 T02400153  RH  058%=      5-min Rain = 0
KLA1 211234Z 13005KT 24/15 A2995 RMK A01 T02400154  RH  058%=      5-min Rain = 0
KLA1 211235Z 13005KT 24/15 A2995 RMK A01 T02400154  RH  058%=      5-min Rain = 0
KLA1 211236Z 12005KT 24/15 A2995 RMK A01 T02400154  RH  059%=      5-min Rain = 0
KLA1 211237Z 12006KT 24/16 A2995 RMK A01 T02400155  RH  059%=      5-min Rain = 0
KLA1 211238Z 13004KT 24/16 A2995 RMK A01 T02400155  RH  059%=      5-min Rain = 0
KLA1 211239Z 13007KT 24/16 A2995 RMK A01 T02400155  RH  059%=      5-min Rain = 0
KLA1 211240Z 13006KT 24/16 A2995 RMK A01 T02400155  RH  059%=      5-min Rain = 0
KLA1 211241Z 13006KT 24/16 A2995 RMK A01 T02400155  RH  059%=      5-min Rain = 0
KLA1 211242Z 13007KT 24/16 A2995 RMK A01 T02400156  RH  059%=      5-min Rain = 0
KLA1 211243Z 13007KT 24/16 A2995 RMK A01 T02410156  RH  059%=      5-min Rain = 0
KLA1 211244Z 13008KT 24/16 A2995 RMK A01 T02410156  RH  059%=      5-min Rain = 0
KLA1 211245Z 13007KT 24/16 A2995 RMK A01 T02420157  RH  059%=      5-min Rain = 0
KLA1 211246Z 12007KT 24/16 A2995 RMK A01 T02420157  RH  059%=      5-min Rain = 0
KLA1 211247Z 13007KT 24/16 A2995 RMK A01 T02420157  RH  059%=      5-min Rain = 0
KLA1 211248Z 13008KT 24/16 A2995 RMK A01 T02430158  RH  059%=      5-min Rain = 0
KLA1 211249Z 13009KT 24/16 A2995 RMK A01 T02430158  RH  059%=      5-min Rain = 0
KLA1 211250Z 13008KT 24/16 A2995 RMK A01 T02440158  RH  059%=      5-min Rain = 0
KLA1 211251Z 12009KT 24/16 A2995 RMK A01 T02440158  RH  059%=      5-min Rain = 0
KLA1 211252Z 13009KT 24/16 A2995 RMK A01 T02440159  RH  059%=      5-min Rain = 0
KLA1 211253Z 13008KT 25/16 A2995 RMK A01 T02450159  RH  059%=      5-min Rain = 0
KLA1 211254Z 13007KT 25/16 A2995 RMK A01 T02450159  RH  059%=      5-min Rain = 0
KLA1 211255Z 12009KT 25/16 A2995 RMK A01 T02450159  RH  059%=      5-min Rain = 0
KLA1 211256Z 13009KT 25/16 A2995 RMK A01 T02460160  RH  059%=      5-min Rain = 0
KLA1 211257Z 13009KT 25/16 A2995 RMK A01 T02460160  RH  059%=      5-min Rain = 0
KLA1 211258Z 13010KT 25/16 A2995 RMK A01 T02470160  RH  059%=      5-min Rain = 0
KLA1 211259Z 13011KT 25/16 A2995 RMK A01 T02470161  RH  059%=      5-min Rain = 0
KLA1 211300Z 13011KT 25/16 A2995 RMK A01 T02470160  RH  058%=      5-min Rain = 0
KLA1 211301Z 12008KT 25/16 A2995 RMK A01 T02480160  RH  058%=      5-min Rain = 0
KLA1 211302Z 13009KT 25/16 A2995 RMK A01 T02480161  RH  058%=      5-min Rain = 0
KLA1 211303Z 13011KT 25/16 A2995 RMK A01 T02480161  RH  058%=      5-min Rain = 0
KLA1 211304Z 13010KT 25/16 A2995 RMK A01 T02490161  RH  058%=      5-min Rain = 0
KLA1 211305Z 12010KT 25/16 A2995 RMK A01 T02490161  RH  058%=      5-min Rain = 0
KLA1 211306Z 12009KT 25/16 A2995 RMK A01 T02490162  RH  058%=      5-min Rain = 0
KLA1 211307Z 13012KT 25/16 A2995 RMK A01 T02500162  RH  058%=      5-min Rain = 0
KLA1 211308Z 13011KT 25/16 A2995 RMK A01 T02500162  RH  058%=      5-min Rain = 0
KLA1 211309Z 12009G14KT 25/16 A2995 RMK A01 T02500162  RH  058%=      5-min Rain = 0
KLA1 211310Z 13013KT 25/16 A2995 RMK A01 T02500163  RH  058%=      5-min Rain = 0
KLA1 211311Z 13013KT 25/16 A2995 RMK A01 T02500163  RH  058%=      5-min Rain = 0
KLA1 211312Z 12012KT 25/16 A2995 RMK A01 T02500163  RH  058%=      5-min Rain = 0
KLA1 211313Z 12012KT 25/16 A2996 RMK A01 T02500163  RH  058%=      5-min Rain = 0
KLA1 211314Z 13012KT 25/16 A2996 RMK A01 T02510163  RH  058%=      5-min Rain = 0
KLA1 211315Z 12009KT 25/16 A2996 RMK A01 T02510164  RH  058%=      5-min Rain = 0
KLA1 211316Z 12010KT 25/16 A2996 RMK A01 T02510164  RH  058%=      5-min Rain = 0
KLA1 211317Z 13011G16KT 25/16 A2996 RMK A01 T02520164  RH  058%=      5-min Rain = 0
KLA1 211318Z 13013KT 25/16 A2996 RMK A01 T02520164  RH  058%=      5-min Rain = 0
KLA1 211319Z 12011KT 25/16 A2996 RMK A01 T02520164  RH  058%=      5-min Rain = 0
KLA1 211320Z 13010KT 25/17 A2996 RMK A01 T02520165  RH  058%=      5-min Rain = 0
KLA1 211321Z 13009KT 25/17 A2996 RMK A01 T02520165  RH  058%=      5-min Rain = 0
KLA1 211322Z 14010KT 25/17 A2996 RMK A01 T02530166  RH  058%=      5-min Rain = 0
KLA1 211323Z 13009KT 25/17 A2997 RMK A01 T02540166  RH  058%=      5-min Rain = 0
KLA1 211324Z 14012KT 25/17 A2997 RMK A01 T02540166  RH  058%=      5-min Rain = 0
KLA1 211325Z 14009KT 25/17 A2997 RMK A01 T02540166  RH  058%=      5-min Rain = 0
KLA1 211326Z 14009KT 25/17 A2997 RMK A01 T02540167  RH  058%=      5-min Rain = 0
KLA1 211327Z 13010KT 26/17 A2997 RMK A01 T02550167  RH  058%=      5-min Rain = 0
KLA1 211328Z 13013KT 26/17 A2997 RMK A01 T02550167  RH  058%=      5-min Rain = 0
KLA1 211329Z 13008KT 26/17 A2997 RMK A01 T02560167  RH  058%=      5-min Rain = 0
KLA1 211330Z 12008KT 26/17 A2997 RMK A01 T02550168  RH  058%=      5-min Rain = 0
KLA1 211331Z 13012KT 26/17 A2997 RMK A01 T02560168  RH  058%=      5-min Rain = 0
KLA1 211332Z 13011KT 26/17 A2997 RMK A01 T02560167  RH  058%=      5-min Rain = 0
KLA1 211333Z 13012KT 26/17 A2997 RMK A01 T02560168  RH  058%=      5-min Rain = 0
KLA1 211334Z 14012KT 26/17 A2997 RMK A01 T02550168  RH  058%=      5-min Rain = 0
KLA1 211335Z 13010KT 26/17 A2997 RMK A01 T02550168  RH  058%=      5-min Rain = 0
KLA1 211336Z 13010KT 26/17 A2997 RMK A01 T02560168  RH  058%=      5-min Rain = 0
KLA1 211337Z 13011KT 26/17 A2997 RMK A01 T02560168  RH  058%=      5-min Rain = 0
KLA1 211338Z 13010KT 26/17 A2997 RMK A01 T02560168  RH  058%=      5-min Rain = 0
KLA1 211339Z 13011KT 26/17 A2997 RMK A01 T02570169  RH  058%=      5-min Rain = 0
KLA1 211340Z 14011KT 26/17 A2997 RMK A01 T02560168  RH  058%=      5-min Rain = 0
KLA1 211341Z 13011KT 26/17 A2997 RMK A01 T02570168  RH  058%=      5-min Rain = 0
KLA1 211342Z 13010KT 26/17 A2997 RMK A01 T02580169  RH  058%=      5-min Rain = 0
KLA1 211343Z 13009KT 26/17 A2997 RMK A01 T02580169  RH  058%=      5-min Rain = 0
KLA1 211344Z 12008KT 26/17 A2997 RMK A01 T02580170  RH  058%=      5-min Rain = 0
KLA1 211345Z 13010KT 26/17 A2997 RMK A01 T02590170  RH  058%=      5-min Rain = 0
KLA1 211346Z 13011KT 26/17 A2997 RMK A01 T02600171  RH  058%=      5-min Rain = 0
KLA1 211347Z 13009KT 26/17 A2997 RMK A01 T02600170  RH  058%=      5-min Rain = 0
KLA1 211348Z 14010KT 26/17 A2998 RMK A01 T02600171  RH  058%=      5-min Rain = 0
KLA1 211349Z 14011KT 26/17 A2998 RMK A01 T02600171  RH  058%=      5-min Rain = 0
KLA1 211350Z 14009KT 26/17 A2998 RMK A01 T02600171  RH  058%=      5-min Rain = 0
KLA1 211351Z 15009KT 26/17 A2998 RMK A01 T02600171  RH  058%=      5-min Rain = 0
KLA1 211352Z 15008KT 26/17 A2998 RMK A01 T02620172  RH  058%=      5-min Rain = 0
KLA1 211353Z 15009KT 26/17 A2998 RMK A01 T02630172  RH  057%=      5-min Rain = 0
KLA1 211354Z 14008KT 26/17 A2998 RMK A01 T02630172  RH  057%=      5-min Rain = 0
KLA1 211355Z 13008KT 26/17 A2998 RMK A01 T02640173  RH  057%=      5-min Rain = 0
KLA1 211356Z 13011KT 27/17 A2998 RMK A01 T02650172  RH  057%=      5-min Rain = 0
KLA1 211357Z 14011KT 26/17 A2998 RMK A01 T02630171  RH  057%=      5-min Rain = 0
KLA1 211358Z 14010KT 26/17 A2998 RMK A01 T02620172  RH  058%=      5-min Rain = 0
KLA1 211359Z 14011KT 26/17 A2998 RMK A01 T02630173  RH  058%=      5-min Rain = 0
KLA1 211400Z 14012KT 26/17 A2998 RMK A01 T02640173  RH  057%=      5-min Rain = 0
KLA1 211401Z 12011KT 26/17 A2998 RMK A01 T02640172  RH  057%=      5-min Rain = 0
KLA1 211402Z 13011KT 26/17 A2998 RMK A01 T02630173  RH  057%=      5-min Rain = 0
KLA1 211403Z 13012KT 26/17 A2998 RMK A01 T02630172  RH  058%=      5-min Rain = 0
KLA1 211404Z 14011KT 26/17 A2998 RMK A01 T02630172  RH  058%=      5-min Rain = 0
KLA1 211405Z 13013KT 26/17 A2998 RMK A01 T02620173  RH  058%=      5-min Rain = 0
KLA1 211406Z 14011KT 26/17 A2997 RMK A01 T02620173  RH  058%=      5-min Rain = 0
KLA1 211407Z 13010KT 26/17 A2998 RMK A01 T02620173  RH  058%=      5-min Rain = 0
KLA1 211408Z 13012KT 26/17 A2998 RMK A01 T02640173  RH  058%=      5-min Rain = 0
KLA1 211409Z 13011KT 26/17 A2998 RMK A01 T02640174  RH  058%=      5-min Rain = 0
KLA1 211410Z 13011KT 26/17 A2998 RMK A01 T02640174  RH  058%=      5-min Rain = 0
KLA1 211411Z 13012KT 27/17 A2998 RMK A01 T02650173  RH  057%=      5-min Rain = 0
KLA1 211412Z 14008KT 26/17 A2998 RMK A01 T02640174  RH  058%=      5-min Rain = 0
KLA1 211413Z 14011KT 27/17 A2997 RMK A01 T02650174  RH  057%=      5-min Rain = 0
KLA1 211414Z 14011KT 27/17 A2997 RMK A01 T02660174  RH  057%=      5-min Rain = 0
KLA1 211415Z 15013KT 27/18 A2997 RMK A01 T02660175  RH  057%=      5-min Rain = 0
KLA1 211416Z 15013KT 27/17 A2997 RMK A01 T02670174  RH  057%=      5-min Rain = 0
KLA1 211417Z 15011KT 27/18 A2997 RMK A01 T02660175  RH  057%=      5-min Rain = 0
KLA1 211418Z 13010KT 27/18 A2998 RMK A01 T02660175  RH  057%=      5-min Rain = 0
KLA1 211419Z 13010KT 27/18 A2998 RMK A01 T02650175  RH  057%=      5-min Rain = 0
KLA1 211420Z 14010KT 27/18 A2998 RMK A01 T02660175  RH  057%=      5-min Rain = 0
KLA1 211421Z 14011KT 27/18 A2997 RMK A01 T02670176  RH  057%=      5-min Rain = 0
KLA1 211422Z 13012KT 27/18 A2998 RMK A01 T02680176  RH  057%=      5-min Rain = 0
KLA1 211423Z 13010KT 27/18 A2998 RMK A01 T02690175  RH  056%=      5-min Rain = 0
KLA1 211424Z 13009KT 27/18 A2998 RMK A01 T02690176  RH  057%=      5-min Rain = 0
KLA1 211425Z 14010KT 27/18 A2998 RMK A01 T02690176  RH  057%=      5-min Rain = 0
KLA1 211426Z 12010KT 27/18 A2998 RMK A01 T02690176  RH  057%=      5-min Rain = 0
KLA1 211427Z 13009KT 27/18 A2998 RMK A01 T02690176  RH  057%=      5-min Rain = 0
KLA1 211428Z 14010KT 27/18 A2998 RMK A01 T02710177  RH  057%=      5-min Rain = 0
KLA1 211429Z 13010KT 27/18 A2998 RMK A01 T02720177  RH  056%=      5-min Rain = 0
KLA1 211430Z 12009KT 27/18 A2998 RMK A01 T02730177  RH  056%=      5-min Rain = 0
KLA1 211431Z 13010KT 27/18 A2998 RMK A01 T02730178  RH  056%=      5-min Rain = 0
KLA1 211432Z 13009KT 27/18 A2998 RMK A01 T02720177  RH  056%=      5-min Rain = 0
KLA1 211433Z 13008KT 27/18 A2998 RMK A01 T02720178  RH  056%=      5-min Rain = 0
KLA1 211434Z 15012KT 27/18 A2998 RMK A01 T02720177  RH  056%=      5-min Rain = 0
KLA1 211435Z 14011KT 27/18 A2998 RMK A01 T02730177  RH  056%=      5-min Rain = 0
KLA1 211436Z 13011KT 27/18 A2998 RMK A01 T02730177  RH  056%=      5-min Rain = 0
KLA1 211437Z 13009KT 27/18 A2998 RMK A01 T02720178  RH  056%=      5-min Rain = 0
KLA1 211438Z 13011KT 27/18 A2998 RMK A01 T02730178  RH  056%=      5-min Rain = 0
KLA1 211439Z 15010KT 27/18 A2998 RMK A01 T02740178  RH  056%=      5-min Rain = 0
KLA1 211440Z 15009KT 27/18 A2998 RMK A01 T02730178  RH  056%=      5-min Rain = 0
KLA1 211441Z 15009KT 27/18 A2998 RMK A01 T02730179  RH  056%=      5-min Rain = 0
KLA1 211442Z 16013KT 28/18 A2998 RMK A01 T02760179  RH  056%=      5-min Rain = 0
KLA1 211443Z 16013KT 28/18 A2998 RMK A01 T02770179  RH  055%=      5-min Rain = 0
KLA1 211444Z 15012KT 28/18 A2998 RMK A01 T02760178  RH  055%=      5-min Rain = 0
KLA1 211445Z 16011KT 28/18 A2998 RMK A01 T02750179  RH  056%=      5-min Rain = 0
KLA1 211446Z 16010KT 28/18 A2998 RMK A01 T02770180  RH  056%=      5-min Rain = 0
KLA1 211447Z 15012KT 28/18 A2998 RMK A01 T02790179  RH  055%=      5-min Rain = 0
KLA1 211448Z 15011KT 28/18 A2998 RMK A01 T02780180  RH  055%=      5-min Rain = 0
KLA1 211449Z 15013KT 28/18 A2998 RMK A01 T02770180  RH  055%=      5-min Rain = 0
KLA1 211450Z 16009KT 28/18 A2998 RMK A01 T02770180  RH  056%=      5-min Rain = 0
KLA1 211451Z 15011G17KT 28/18 A2998 RMK A01 T02760180  RH  056%=      5-min Rain = 0
KLA1 211452Z 15012KT 28/18 A2998 RMK A01 T02770179  RH  055%=      5-min Rain = 0
KLA1 211453Z 15011KT 28/18 A2998 RMK A01 T02780179  RH  055%=      5-min Rain = 0
KLA1 211454Z 15011KT 28/18 A2998 RMK A01 T02770179  RH  055%=      5-min Rain = 0
KLA1 211455Z 16009KT 28/18 A2998 RMK A01 T02760180  RH  056%=      5-min Rain = 0
KLA1 211456Z 15012KT 28/18 A2998 RMK A01 T02780180  RH  055%=      5-min Rain = 0
KLA1 211457Z 15010KT 28/18 A2998 RMK A01 T02790180  RH  055%=      5-min Rain = 0
KLA1 211458Z 16011KT 28/18 A2998 RMK A01 T02800180  RH  055%=      5-min Rain = 0
KLA1 211459Z 15011KT 28/18 A2998 RMK A01 T02810180  RH  054%=      5-min Rain = 0
KLA1 211500Z 15011KT 28/18 A2998 RMK A01 T02810180  RH  054%=      5-min Rain = 0
KLA1 211501Z 15012KT 28/18 A2998 RMK A01 T02800181  RH  055%=      5-min Rain = 0
KLA1 211502Z 14011KT 28/18 A2998 RMK A01 T02800179  RH  054%=      5-min Rain = 0
KLA1 211503Z 15012KT 28/18 A2998 RMK A01 T02790180  RH  055%=      5-min Rain = 0
KLA1 211504Z 15008KT 28/18 A2998 RMK A01 T02790181  RH  055%=      5-min Rain = 0
KLA1 211505Z 15010KT 28/18 A2998 RMK A01 T02830182  RH  054%=      5-min Rain = 0
KLA1 211506Z 14009KT 28/18 A2998 RMK A01 T02830181  RH  054%=      5-min Rain = 0
KLA1 211507Z 13012KT 28/18 A2998 RMK A01 T02830181  RH  054%=      5-min Rain = 0
KLA1 211508Z 13012KT 28/18 A2998 RMK A01 T02820181  RH  054%=      5-min Rain = 0
KLA1 211509Z 15011KT 28/18 A2997 RMK A01 T02820181  RH  054%=      5-min Rain = 0
KLA1 211510Z 16011KT 28/18 A2997 RMK A01 T02810180  RH  054%=      5-min Rain = 0
KLA1 211511Z 16011KT 28/18 A2997 RMK A01 T02810181  RH  054%=      5-min Rain = 0
KLA1 211512Z 15014KT 28/18 A2997 RMK A01 T02820180  RH  054%=      5-min Rain = 0
KLA1 211513Z 16011KT 28/18 A2997 RMK A01 T02830180  RH  054%=      5-min Rain = 0
KLA1 211514Z 15010KT 28/18 A2997 RMK A01 T02840182  RH  054%=      5-min Rain = 0
KLA1 211515Z 14013KT 29/18 A2997 RMK A01 T02850181  RH  053%=      5-min Rain = 0
KLA1 211516Z 15014KT 29/18 A2997 RMK A01 T02850181  RH  053%=      5-min Rain = 0
KLA1 211517Z 15013KT 29/18 A2997 RMK A01 T02860180  RH  053%=      5-min Rain = 0
KLA1 211518Z 15014KT 28/18 A2997 RMK A01 T02840180  RH  053%=      5-min Rain = 0
KLA1 211519Z 15011KT 28/18 A2997 RMK A01 T02830181  RH  054%=      5-min Rain = 0
KLA1 211520Z 16010KT 28/18 A2997 RMK A01 T02840180  RH  053%=      5-min Rain = 0
KLA1 211521Z 15011G17KT 29/18 A2997 RMK A01 T02850182  RH  054%=      5-min Rain = 0
KLA1 211522Z 14012KT 29/18 A2997 RMK A01 T02860181  RH  053%=      5-min Rain = 0
KLA1 211523Z 15011KT 29/18 A2998 RMK A01 T02860182  RH  053%=      5-min Rain = 0
KLA1 211524Z 16010KT 29/18 A2997 RMK A01 T02860181  RH  053%=      5-min Rain = 0
KLA1 211525Z 17010KT 29/18 A2997 RMK A01 T02860182  RH  053%=      5-min Rain = 0
KLA1 211526Z 17012KT 29/18 A2997 RMK A01 T02880181  RH  053%=      5-min Rain = 0
KLA1 211527Z 16011KT 29/18 A2997 RMK A01 T02890182  RH  052%=      5-min Rain = 0
KLA1 211528Z 16010KT 29/18 A2997 RMK A01 T02890182  RH  052%=      5-min Rain = 0
KLA1 211529Z 15011G16KT 29/18 A2997 RMK A01 T02890182  RH  052%=      5-min Rain = 0
KLA1 211530Z 14011KT 29/18 A2997 RMK A01 T02890182  RH  052%=      5-min Rain = 0
KLA1 211531Z 15011KT 29/18 A2997 RMK A01 T02890182  RH  053%=      5-min Rain = 0
KLA1 211532Z 15011KT 29/18 A2997 RMK A01 T02890182  RH  052%=      5-min Rain = 0
KLA1 211533Z 15010KT 29/18 A2997 RMK A01 T02880181  RH  052%=      5-min Rain = 0
KLA1 211534Z 16010KT 29/18 A2997 RMK A01 T02880183  RH  053%=      5-min Rain = 0
KLA1 211535Z 17010KT 29/18 A2997 RMK A01 T02880182  RH  052%=      5-min Rain = 0
KLA1 211536Z 16012KT 29/18 A2997 RMK A01 T02880182  RH  053%=      5-min Rain = 0
KLA1 211537Z 16008KT 29/18 A2998 RMK A01 T02880181  RH  052%=      5-min Rain = 0
KLA1 211538Z 17011KT 29/18 A2997 RMK A01 T02910182  RH  052%=      5-min Rain = 0
KLA1 211539Z 16014KT 29/18 A2998 RMK A01 T02920182  RH  052%=      5-min Rain = 0
KLA1 211540Z 16009KT 29/18 A2998 RMK A01 T02900182  RH  052%=      5-min Rain = 0
KLA1 211541Z 15012KT 29/18 A2998 RMK A01 T02890182  RH  052%=      5-min Rain = 0
KLA1 211542Z 14011KT 29/18 A2998 RMK A01 T02880182  RH  053%=      5-min Rain = 0
KLA1 211543Z 13009KT 29/18 A2998 RMK A01 T02890183  RH  053%=      5-min Rain = 0
KLA1 211544Z 14013KT 29/18 A2998 RMK A01 T02910183  RH  052%=      5-min Rain = 0
KLA1 211545Z 15013KT 29/18 A2998 RMK A01 T02920182  RH  051%=      5-min Rain = 0
KLA1 211546Z 16012KT 29/18 A2998 RMK A01 T02920181  RH  051%=      5-min Rain = 0
KLA1 211547Z 16012KT 29/18 A2998 RMK A01 T02920182  RH  051%=      5-min Rain = 0
KLA1 211548Z 16010KT 29/18 A2998 RMK A01 T02910182  RH  052%=      5-min Rain = 0
KLA1 211549Z 16011G16KT 29/18 A2998 RMK A01 T02910182  RH  052%=      5-min Rain = 0
KLA1 211550Z 16013KT 29/18 A2998 RMK A01 T02910182  RH  052%=      5-min Rain = 0
KLA1 211551Z 15011KT 29/18 A2998 RMK A01 T02910182  RH  052%=      5-min Rain = 0
KLA1 211552Z 15010KT 29/18 A2998 RMK A01 T02910183  RH  052%=      5-min Rain = 0
KLA1 211553Z 15010KT 29/19 A2998 RMK A01 T02940185  RH  052%=      5-min Rain = 0
KLA1 211554Z 15010KT 30/18 A2997 RMK A01 T02980184  RH  050%=      5-min Rain = 0
KLA1 211555Z 16010KT 30/18 A2998 RMK A01 T03000184  RH  050%=      5-min Rain = 0
KLA1 211556Z 16012KT 30/18 A2997 RMK A01 T03000183  RH  050%=      5-min Rain = 0
KLA1 211557Z 16013KT 30/18 A2997 RMK A01 T03000184  RH  050%=      5-min Rain = 0
KLA1 211558Z 15012KT 30/18 A2997 RMK A01 T02990184  RH  050%=      5-min Rain = 0
KLA1 211559Z 15011KT 30/18 A2997 RMK A01 T02990184  RH  050%=      5-min Rain = 0
KLA1 211600Z 16011KT 30/18 A2997 RMK A01 T02990183  RH  050%=      5-min Rain = 0
KLA1 211601Z 15011KT 30/18 A2997 RMK A01 T03000183  RH  050%=      5-min Rain = 0
KLA1 211602Z 15012KT 30/18 A2997 RMK A01 T02990183  RH  050%=      5-min Rain = 0
KLA1 211603Z 15014KT 30/18 A2997 RMK A01 T03000182  RH  049%=      5-min Rain = 0
KLA1 211604Z 15011KT 30/18 A2998 RMK A01 T03000182  RH  049%=      5-min Rain = 0
KLA1 211605Z 15010KT 30/18 A2998 RMK A01 T02980183  RH  050%=      5-min Rain = 0
KLA1 211606Z 15009G14KT 30/18 A2998 RMK A01 T02980184  RH  050%=      5-min Rain = 0
KLA1 211607Z 16012KT 30/18 A2998 RMK A01 T02990184  RH  050%=      5-min Rain = 0
KLA1 211608Z 15012KT 30/18 A2998 RMK A01 T03010183  RH  049%=      5-min Rain = 0
KLA1 211609Z 15013KT 30/18 A2998 RMK A01 T03010181  RH  048%=      5-min Rain = 0
KLA1 211610Z 15011KT 30/18 A2998 RMK A01 T02990182  RH  049%=      5-min Rain = 0
KLA1 211611Z 15011KT 30/18 A2998 RMK A01 T03000184  RH  050%=      5-min Rain = 0
KLA1 211612Z 16010KT 30/19 A2998 RMK A01 T03010185  RH  050%=      5-min Rain = 0
KLA1 211613Z 14010G15KT 30/18 A2998 RMK A01 T03020184  RH  049%=      5-min Rain = 0
KLA1 211614Z 14009KT 30/18 A2998 RMK A01 T03030181  RH  048%=      5-min Rain = 0
KLA1 211615Z 15009KT 30/18 A2998 RMK A01 T03020182  RH  049%=      5-min Rain = 0
KLA1 211616Z 15011KT 30/18 A2998 RMK A01 T03010183  RH  049%=      5-min Rain = 0
KLA1 211617Z 16011KT 30/18 A2998 RMK A01 T03010183  RH  049%=      5-min Rain = 0
KLA1 211618Z 15012KT 30/18 A2998 RMK A01 T02990181  RH  049%=      5-min Rain = 0
KLA1 211619Z 16011G18KT 30/18 A2998 RMK A01 T02990181  RH  049%=      5-min Rain = 0
KLA1 211620Z 15015KT 30/18 A2998 RMK A01 T02990179  RH  048%=      5-min Rain = 0
KLA1 211621Z 15013KT 30/18 A2998 RMK A01 T03000179  RH  048%=      5-min Rain = 0
KLA1 211622Z 15012KT 30/18 A2998 RMK A01 T03000178  RH  048%=      5-min Rain = 0
KLA1 211623Z 16010KT 30/18 A2998 RMK A01 T03010178  RH  048%=      5-min Rain = 0
KLA1 211624Z 14009KT 30/18 A2998 RMK A01 T03020180  RH  048%=      5-min Rain = 0
KLA1 211625Z 14013G19KT 31/18 A2998 RMK A01 T03060181  RH  047%=      5-min Rain = 0
KLA1 211626Z 15013KT 31/18 A2998 RMK A01 T03090183  RH  047%=      5-min Rain = 0
KLA1 211627Z 14011KT 31/18 A2998 RMK A01 T03100181  RH  046%=      5-min Rain = 0
KLA1 211628Z 16009G18KT 31/18 A2998 RMK A01 T03090181  RH  047%=      5-min Rain = 0
KLA1 211629Z 15016KT 31/18 A2998 RMK A01 T03080180  RH  047%=      5-min Rain = 0
KLA1 211630Z 14013KT 31/18 A2998 RMK A01 T03070180  RH  047%=      5-min Rain = 0
KLA1 211631Z 15010KT 31/18 A2998 RMK A01 T03070180  RH  047%=      5-min Rain = 0
KLA1 211632Z 16012KT 31/18 A2998 RMK A01 T03060180  RH  047%=      5-min Rain = 0
KLA1 211633Z 15010KT 31/18 A2998 RMK A01 T03050180  RH  047%=      5-min Rain = 0
KLA1 211634Z 15010KT 30/18 A2998 RMK A01 T03040180  RH  048%=      5-min Rain = 0
KLA1 211635Z 16011KT 30/18 A2998 RMK A01 T03030180  RH  048%=      5-min Rain = 0
KLA1 211636Z 15012KT 30/18 A2998 RMK A01 T03040179  RH  047%=      5-min Rain = 0
KLA1 211637Z 15013KT 31/18 A2998 RMK A01 T03070180  RH  047%=      5-min Rain = 0
KLA1 211638Z 15009KT 31/18 A2998 RMK A01 T03090180  RH  046%=      5-min Rain = 0
KLA1 211639Z 15011KT 31/18 A2998 RMK A01 T03110182  RH  046%=      5-min Rain = 0
KLA1 211640Z 15013KT 31/18 A2998 RMK A01 T03130181  RH  045%=      5-min Rain = 0
KLA1 211641Z 15013KT 31/18 A2998 RMK A01 T03130178  RH  045%=      5-min Rain = 0
KLA1 211642Z 15011KT 31/18 A2998 RMK A01 T03090177  RH  045%=      5-min Rain = 0
KLA1 211643Z 15011KT 31/18 A2998 RMK A01 T03070178  RH  046%=      5-min Rain = 0
KLA1 211644Z 15010KT 31/18 A2998 RMK A01 T03080179  RH  046%=      5-min Rain = 0
KLA1 211645Z 16012KT 31/18 A2998 RMK A01 T03100180  RH  046%=      5-min Rain = 0
KLA1 211646Z 15012KT 31/18 A2998 RMK A01 T03100179  RH  046%=      5-min Rain = 0
KLA1 211647Z 13012KT 31/18 A2998 RMK A01 T03090180  RH  046%=      5-min Rain = 0
KLA1 211648Z 15013KT 31/18 A2998 RMK A01 T03070179  RH  046%=      5-min Rain = 0
KLA1 211649Z 14013KT 31/18 A2998 RMK A01 T03060178  RH  046%=      5-min Rain = 0
KLA1 211650Z 15011KT 31/18 A2998 RMK A01 T03070176  RH  045%=      5-min Rain = 0
KLA1 211651Z 17010KT 31/18 A2998 RMK A01 T03090177  RH  045%=      5-min Rain = 0
KLA1 211652Z 17013KT 31/18 A2998 RMK A01 T03110178  RH  045%=      5-min Rain = 0
KLA1 211653Z 17012KT 31/18 A2998 RMK A01 T03120178  RH  045%=      5-min Rain = 0
KLA1 211654Z 16011KT 31/18 A2998 RMK A01 T03110177  RH  045%=      5-min Rain = 0
KLA1 211655Z 16008KT 31/18 A2998 RMK A01 T03120176  RH  044%=      5-min Rain = 0
KLA1 211656Z 17012KT 31/18 A2998 RMK A01 T03140178  RH  044%=      5-min Rain = 0
KLA1 211657Z 16011KT 31/18 A2998 RMK A01 T03140176  RH  044%=      5-min Rain = 0
KLA1 211658Z 14011KT 32/18 A2998 RMK A01 T03160176  RH  043%=      5-min Rain = 0
KLA1 211659Z 15010KT 32/18 A2998 RMK A01 T03190177  RH  043%=      5-min Rain = 0
KLA1 211700Z 14014KT 32/18 A2998 RMK A01 T03200177  RH  043%=      5-min Rain = 0
KLA1 211701Z 15012G17KT 32/18 A2998 RMK A01 T03180176  RH  043%=      5-min Rain = 0
KLA1 211702Z 15012KT 32/18 A2998 RMK A01 T03180178  RH  043%=      5-min Rain = 0
KLA1 211703Z 14012KT 32/18 A2998 RMK A01 T03190179  RH  043%=      5-min Rain = 0
KLA1 211704Z 14013KT 32/18 A2998 RMK A01 T03200180  RH  043%=      5-min Rain = 0
KLA1 211705Z 15010G16KT 32/18 A2998 RMK A01 T03180179  RH  043%=      5-min Rain = 0
KLA1 211706Z 16013G18KT 32/18 A2998 RMK A01 T03180177  RH  043%=      5-min Rain = 0
KLA1 211707Z 15012KT 32/18 A2998 RMK A01 T03180176  RH  043%=      5-min Rain = 0
KLA1 211708Z 16012KT 32/18 A2998 RMK A01 T03200175  RH  042%=      5-min Rain = 0
KLA1 211709Z 15013KT 32/18 A2998 RMK A01 T03200178  RH  043%=      5-min Rain = 0
KLA1 211710Z 15011KT 32/18 A2998 RMK A01 T03210180  RH  043%=      5-min Rain = 0
KLA1 211711Z 14010KT 32/18 A2998 RMK A01 T03240183  RH  043%=      5-min Rain = 0
KLA1 211712Z 14012KT 33/18 A2998 RMK A01 T03250182  RH  043%=      5-min Rain = 0
KLA1 211713Z 14012KT 32/18 A2998 RMK A01 T03220180  RH  043%=      5-min Rain = 0
KLA1 211714Z 14013KT 32/18 A2998 RMK A01 T03190178  RH  043%=      5-min Rain = 0
KLA1 211715Z 14010KT 32/18 A2998 RMK A01 T03180179  RH  044%=      5-min Rain = 0
KLA1 211716Z 14012KT 32/18 A2998 RMK A01 T03170178  RH  043%=      5-min Rain = 0
KLA1 211717Z 14011KT 32/18 A2998 RMK A01 T03180176  RH  043%=      5-min Rain = 0
KLA1 211718Z 14014KT 32/18 A2998 RMK A01 T03190177  RH  043%=      5-min Rain = 0
KLA1 211719Z 15014KT 32/18 A2998 RMK A01 T03190175  RH  042%=      5-min Rain = 0
KLA1 211720Z 16009KT 32/18 A2998 RMK A01 T03190176  RH  043%=      5-min Rain = 0
KLA1 211721Z 16010KT 32/18 A2998 RMK A01 T03180177  RH  043%=      5-min Rain = 0
KLA1 211722Z 16008KT 32/18 A2998 RMK A01 T03170178  RH  044%=      5-min Rain = 0
KLA1 211723Z 14008KT 32/18 A2998 RMK A01 T03170179  RH  044%=      5-min Rain = 0
KLA1 211724Z 14008KT 32/18 A2997 RMK A01 T03210180  RH  043%=      5-min Rain = 0
KLA1 211725Z 15009KT 32/18 A2997 RMK A01 T03230179  RH  042%=      5-min Rain = 0
KLA1 211726Z 15009KT 33/18 A2997 RMK A01 T03260181  RH  042%=      5-min Rain = 0
KLA1 211727Z 16009KT 33/18 A2997 RMK A01 T03280180  RH  041%=      5-min Rain = 0
KLA1 211728Z 17007KT 33/18 A2997 RMK A01 T03290183  RH  042%=      5-min Rain = 0
KLA1 211729Z 14010KT 33/18 A2997 RMK A01 T03310182  RH  041%=      5-min Rain = 0
KLA1 211730Z 14011KT 33/18 A2997 RMK A01 T03330178  RH  040%=      5-min Rain = 0
KLA1 211731Z 15012KT 33/18 A2997 RMK A01 T03320179  RH  040%=      5-min Rain = 0
KLA1 211732Z 16011KT 33/18 A2997 RMK A01 T03320179  RH  040%=      5-min Rain = 0
KLA1 211733Z 16009KT 33/18 A2997 RMK A01 T03330180  RH  040%=      5-min Rain = 0
KLA1 211734Z 14010KT 34/18 A2997 RMK A01 T03360181  RH  040%=      5-min Rain = 0
KLA1 211735Z 16009KT 34/18 A2997 RMK A01 T03360181  RH  040%=      5-min Rain = 0
KLA1 211736Z 16006KT 33/18 A2997 RMK A01 T03340183  RH  041%=      5-min Rain = 0
KLA1 211737Z 15010KT 33/18 A2997 RMK A01 T03330181  RH  041%=      5-min Rain = 0
KLA1 211738Z 14014KT 33/18 A2997 RMK A01 T03340176  RH  039%=      5-min Rain = 0
KLA1 211739Z 15011G16KT 33/18 A2997 RMK A01 T03330176  RH  039%=      5-min Rain = 0
KLA1 211740Z 15014KT 33/18 A2997 RMK A01 T03320178  RH  040%=      5-min Rain = 0
KLA1 211741Z 15011KT 33/18 A2997 RMK A01 T03310179  RH  040%=      5-min Rain = 0
KLA1 211742Z 15010KT 33/18 A2997 RMK A01 T03290178  RH  041%=      5-min Rain = 0
KLA1 211743Z 15011KT 33/18 A2997 RMK A01 T03250177  RH  042%=      5-min Rain = 0
KLA1 211744Z 15009G14KT 32/18 A2997 RMK A01 T03230175  RH  042%=      5-min Rain = 0
KLA1 211745Z 15009KT 32/17 A2997 RMK A01 T03220174  RH  041%=      5-min Rain = 0
KLA1 211746Z 15011KT 32/18 A2997 RMK A01 T03230175  RH  041%=      5-min Rain = 0
KLA1 211747Z 15013KT 33/18 A2997 RMK A01 T03260176  RH  041%=      5-min Rain = 0
KLA1 211748Z 15011KT 33/18 A2997 RMK A01 T03270178  RH  041%=      5-min Rain = 0
KLA1 211749Z 15010KT 33/18 A2997 RMK A01 T03300178  RH  041%=      5-min Rain = 0
KLA1 211750Z 15007KT 33/18 A2997 RMK A01 T03300180  RH  041%=      5-min Rain = 0
KLA1 211751Z 16006KT 33/18 A2997 RMK A01 T03340183  RH  041%=      5-min Rain = 0
KLA1 211752Z 16010KT 34/18 A2997 RMK A01 T03390181  RH  039%=      5-min Rain = 0
KLA1 211753Z 17011G16KT 34/18 A2996 RMK A01 T03390180  RH  039%=      5-min Rain = 0
KLA1 211754Z 17011KT 34/18 A2996 RMK A01 T03390179  RH  039%=      5-min Rain = 0
KLA1 211755Z 17008KT 34/18 A2996 RMK A01 T03390180  RH  039%=      5-min Rain = 0
KLA1 211756Z 14010KT 34/18 A2996 RMK A01 T03400181  RH  039%=      5-min Rain = 0
KLA1 211757Z 13011KT 34/18 A2996 RMK A01 T03410176  RH  038%=      5-min Rain = 0
KLA1 211758Z 13010KT 34/17 A2996 RMK A01 T03380173  RH  037%=      5-min Rain = 0
KLA1 211759Z 13013KT 34/18 A2996 RMK A01 T03390175  RH  038%=      5-min Rain = 0
KLA1 211800Z 14017KT 34/18 A2996 RMK A01 T03400177  RH  038%=      5-min Rain = 0
KLA1 211801Z 14014KT 34/18 A2996 RMK A01 T03360175  RH  038%=      5-min Rain = 0
KLA1 211802Z 14011KT 33/17 A2996 RMK A01 T03340174  RH  039%=      5-min Rain = 0
KLA1 211803Z 15011KT 34/17 A2996 RMK A01 T03360172  RH  038%=      5-min Rain = 0
KLA1 211804Z 15012KT 34/17 A2996 RMK A01 T03370173  RH  038%=      5-min Rain = 0
KLA1 211805Z 15011KT 34/17 A2996 RMK A01 T03370174  RH  038%=      5-min Rain = 0
KLA1 211806Z 15009KT 34/18 A2996 RMK A01 T03400176  RH  038%=      5-min Rain = 0
KLA1 211807Z 15013KT 34/18 A2996 RMK A01 T03420176  RH  037%=      5-min Rain = 0
KLA1 211808Z 16012KT 34/18 A2996 RMK A01 T03430177  RH  037%=      5-min Rain = 0
KLA1 211809Z 16009KT 34/18 A2996 RMK A01 T03410177  RH  038%=      5-min Rain = 0
KLA1 211810Z 13011KT 34/18 A2996 RMK A01 T03410175  RH  037%=      5-min Rain = 0
KLA1 211811Z 15010KT 34/18 A2996 RMK A01 T03390175  RH  038%=      5-min Rain = 0
KLA1 211812Z 14007KT 34/18 A2996 RMK A01 T03380176  RH  038%=      5-min Rain = 0
KLA1 211813Z 15008KT 34/18 A2996 RMK A01 T03400176  RH  038%=      5-min Rain = 0
KLA1 211814Z 15008KT 34/18 A2996 RMK A01 T03420175  RH  037%=      5-min Rain = 0
KLA1 211815Z 13009KT 34/18 A2996 RMK A01 T03410176  RH  038%=      5-min Rain = 0
KLA1 211816Z 13009KT 34/18 A2996 RMK A01 T03410177  RH  038%=      5-min Rain = 0
KLA1 211817Z 13013KT 34/18 A2996 RMK A01 T03420175  RH  037%=      5-min Rain = 0
KLA1 211818Z 14014KT 34/18 A2996 RMK A01 T03430175  RH  037%=      5-min Rain = 0
KLA1 211819Z 13013KT 35/18 A2996 RMK A01 T03450175  RH  037%=      5-min Rain = 0
KLA1 211820Z 14013KT 34/17 A2996 RMK A01 T03400172  RH  037%=      5-min Rain = 0
KLA1 211821Z 12011KT 34/17 A2996 RMK A01 T03390171  RH  037%=      5-min Rain = 0
KLA1 211822Z 13012KT 34/17 A2996 RMK A01 T03400173  RH  037%=      5-min Rain = 0
KLA1 211823Z 13009KT 34/17 A2996 RMK A01 T03410173  RH  037%=      5-min Rain = 0
KLA1 211824Z 12009KT 34/17 A2996 RMK A01 T03410174  RH  037%=      5-min Rain = 0
KLA1 211825Z 14007G14KT 34/18 A2996 RMK A01 T03420175  RH  037%=      5-min Rain = 0
KLA1 211826Z 14011G16KT 34/18 A2996 RMK A01 T03440177  RH  037%=      5-min Rain = 0
KLA1 211827Z 15010KT 35/17 A2996 RMK A01 T03460172  RH  036%=      5-min Rain = 0
KLA1 211828Z 15006KT 34/17 A2996 RMK A01 T03430174  RH  037%=      5-min Rain = 0
KLA1 211829Z 15011KT 34/18 A2996 RMK A01 T03430176  RH  037%=      5-min Rain = 0
KLA1 211830Z 15012KT 34/17 A2996 RMK A01 T03440174  RH  036%=      5-min Rain = 0
KLA1 211831Z 15012KT 34/17 A2996 RMK A01 T03430172  RH  036%=      5-min Rain = 0
KLA1 211832Z 15009KT 34/17 A2996 RMK A01 T03410169  RH  036%=      5-min Rain = 0
KLA1 211833Z 15010KT 34/17 A2996 RMK A01 T03420168  RH  035%=      5-min Rain = 0
KLA1 211834Z 15010KT 35/17 A2996 RMK A01 T03450169  RH  035%=      5-min Rain = 0
KLA1 211835Z 15009KT 35/17 A2996 RMK A01 T03460172  RH  036%=      5-min Rain = 0
KLA1 211836Z 14008KT 35/17 A2996 RMK A01 T03460169  RH  035%=      5-min Rain = 0
KLA1 211837Z 12013KT 35/17 A2996 RMK A01 T03460166  RH  034%=      5-min Rain = 0
KLA1 211838Z 13011KT 35/17 A2996 RMK A01 T03450170  RH  035%=      5-min Rain = 0
KLA1 211839Z 13010KT 35/17 A2996 RMK A01 T03460170  RH  035%=      5-min Rain = 0
KLA1 211840Z 12009KT 35/17 A2996 RMK A01 T03460171  RH  035%=      5-min Rain = 0
KLA1 211841Z 14012G17KT 35/17 A2996 RMK A01 T03470173  RH  036%=      5-min Rain = 0
KLA1 211842Z 13009KT 35/17 A2996 RMK A01 T03470170  RH  035%=      5-min Rain = 0
KLA1 211843Z 13011KT 35/17 A2996 RMK A01 T03460170  RH  035%=      5-min Rain = 0
KLA1 211844Z 12010KT 35/17 A2996 RMK A01 T03460166  RH  034%=      5-min Rain = 0
KLA1 211845Z 11009KT 35/17 A2996 RMK A01 T03490165  RH  034%=      5-min Rain = 0
KLA1 211846Z 11008KT 35/16 A2996 RMK A01 T03480162  RH  033%=      5-min Rain = 0
KLA1 211847Z 11007KT 35/16 A2996 RMK A01 T03470163  RH  034%=      5-min Rain = 0
KLA1 211848Z 15010KT 35/16 A2996 RMK A01 T03490163  RH  033%=      5-min Rain = 0
KLA1 211849Z 16011KT 35/16 A2996 RMK A01 T03520158  RH  032%=      5-min Rain = 0
KLA1 211850Z 14007KT 35/16 A2995 RMK A01 T03530161  RH  032%=      5-min Rain = 0
KLA1 211851Z 15010KT 35/16 A2995 RMK A01 T03500162  RH  033%=      5-min Rain = 0
KLA1 211852Z 16010KT 35/16 A2995 RMK A01 T03500157  RH  032%=      5-min Rain = 0
KLA1 211853Z 16011KT 35/16 A2995 RMK A01 T03520156  RH  031%=      5-min Rain = 0
KLA1 211854Z 15008KT 35/16 A2995 RMK A01 T03530158  RH  031%=      5-min Rain = 0
KLA1 211855Z 14007KT 36/17 A2995 RMK A01 T03550166  RH  033%=      5-min Rain = 0
KLA1 211856Z 16010KT 36/17 A2995 RMK A01 T03570165  RH  032%=      5-min Rain = 0
KLA1 211857Z 15011KT 36/17 A2995 RMK A01 T03580165  RH  032%=      5-min Rain = 0
KLA1 211858Z 17011G16KT 36/17 A2995 RMK A01 T03570165  RH  032%=      5-min Rain = 0
KLA1 211859Z 17011KT 36/17 A2995 RMK A01 T03570165  RH  032%=      5-min Rain = 0
KLA1 211900Z 17012KT 36/16 A2995 RMK A01 T03560163  RH  032%=      5-min Rain = 0
KLA1 211901Z 16012KT 36/16 A2995 RMK A01 T03560162  RH  032%=      5-min Rain = 0
KLA1 211902Z 17009KT 36/17 A2994 RMK A01 T03550165  RH  033%=      5-min Rain = 0
KLA1 211903Z 19011KT 36/17 A2994 RMK A01 T03550166  RH  033%=      5-min Rain = 0
KLA1 211904Z 17009KT 36/17 A2994 RMK A01 T03550166  RH  033%=      5-min Rain = 0
KLA1 211905Z 16011KT 36/17 A2994 RMK A01 T03560166  RH  032%=      5-min Rain = 0
KLA1 211906Z 16009KT 36/16 A2994 RMK A01 T03560162  RH  032%=      5-min Rain = 0
KLA1 211907Z 16010KT 35/16 A2994 RMK A01 T03530163  RH  032%=      5-min Rain = 0
KLA1 211908Z 16010G15KT 35/16 A2994 RMK A01 T03540160  RH  032%=      5-min Rain = 0
KLA1 211909Z 15010G15KT 36/15 A2994 RMK A01 T03570153  RH  030%=      5-min Rain = 0
KLA1 211910Z 17011KT 36/16 A2994 RMK A01 T03550160  RH  031%=      5-min Rain = 0
KLA1 211911Z 17007KT 36/16 A2994 RMK A01 T03550158  RH  031%=      5-min Rain = 0
KLA1 211912Z 18006KT 35/16 A2994 RMK A01 T03540162  RH  032%=      5-min Rain = 0
KLA1 211913Z 16007KT 36/16 A2994 RMK A01 T03560164  RH  032%=      5-min Rain = 0
KLA1 211914Z 16011KT 36/16 A2994 RMK A01 T03590163  RH  031%=      5-min Rain = 0
KLA1 211915Z 15012KT 37/16 A2994 RMK A01 T03650164  RH  031%=      5-min Rain = 0
KLA1 211916Z 15012KT 36/17 A2994 RMK A01 T03640167  RH  031%=      5-min Rain = 0
KLA1 211917Z 15009KT 36/17 A2994 RMK A01 T03630168  RH  032%=      5-min Rain = 0
KLA1 211918Z 16010KT 36/17 A2994 RMK A01 T03620165  RH  031%=      5-min Rain = 0
KLA1 211919Z 16008KT 36/16 A2993 RMK A01 T03600162  RH  031%=      5-min Rain = 0
KLA1 211920Z 16006KT 36/16 A2993 RMK A01 T03600155  RH  030%=      5-min Rain = 0
KLA1 211921Z 16008KT 36/16 A2993 RMK A01 T03590158  RH  030%=      5-min Rain = 0
KLA1 211922Z 14006KT 36/16 A2993 RMK A01 T03600162  RH  031%=      5-min Rain = 0
KLA1 211923Z 14009KT 36/16 A2993 RMK A01 T03590162  RH  031%=      5-min Rain = 0
KLA1 211924Z 13008KT 36/17 A2993 RMK A01 T03600165  RH  032%=      5-min Rain = 0
KLA1 211925Z 14008KT 36/17 A2993 RMK A01 T03620165  RH  031%=      5-min Rain = 0
KLA1 211926Z 13010KT 36/16 A2993 RMK A01 T03620164  RH  031%=      5-min Rain = 0
KLA1 211927Z 13009KT 36/16 A2993 RMK A01 T03620164  RH  031%=      5-min Rain = 0
KLA1 211928Z 13011KT 36/17 A2993 RMK A01 T03640167  RH  031%=      5-min Rain = 0
KLA1 211929Z 13012KT 37/16 A2993 RMK A01 T03660162  RH  030%=      5-min Rain = 0
KLA1 211930Z 14008KT 36/16 A2993 RMK A01 T03620161  RH  030%=      5-min Rain = 0
KLA1 211931Z 16008KT 36/16 A2993 RMK A01 T03620164  RH  031%=      5-min Rain = 0
KLA1 211932Z 16011KT 36/16 A2993 RMK A01 T03620163  RH  031%=      5-min Rain = 0
KLA1 211933Z 15006G13KT 36/16 A2993 RMK A01 T03600162  RH  031%=      5-min Rain = 0
KLA1 211934Z 14012KT 36/16 A2993 RMK A01 T03590160  RH  031%=      5-min Rain = 0
KLA1 211935Z 14014KT 36/16 A2993 RMK A01 T03630158  RH  030%=      5-min Rain = 0
KLA1 211936Z 15013KT 36/16 A2993 RMK A01 T03630155  RH  029%=      5-min Rain = 0
KLA1 211937Z 14008KT 36/16 A2993 RMK A01 T03630155  RH  029%=      5-min Rain = 0
KLA1 211938Z 15010KT 36/16 A2993 RMK A01 T03640160  RH  030%=      5-min Rain = 0
KLA1 211939Z 14012KT 37/16 A2993 RMK A01 T03660160  RH  030%=      5-min Rain = 0
KLA1 211940Z 15008KT 37/16 A2993 RMK A01 T03660159  RH  029%=      5-min Rain = 0
KLA1 211941Z 15008G14KT 37/16 A2992 RMK A01 T03660158  RH  029%=      5-min Rain = 0
KLA1 211942Z 13012KT 37/16 A2992 RMK A01 T03670159  RH  029%=      5-min Rain = 0
KLA1 211943Z 13012KT 37/16 A2992 RMK A01 T03670160  RH  029%=      5-min Rain = 0
KLA1 211944Z 13013KT 37/16 A2992 RMK A01 T03680158  RH  029%=      5-min Rain = 0
KLA1 211945Z 13010KT 37/16 A2992 RMK A01 T03650158  RH  029%=      5-min Rain = 0
KLA1 211946Z 13012KT 36/16 A2992 RMK A01 T03640160  RH  030%=      5-min Rain = 0
KLA1 211947Z 12011KT 36/16 A2992 RMK A01 T03640162  RH  030%=      5-min Rain = 0
KLA1 211948Z 12010KT 37/16 A2992 RMK A01 T03670162  RH  030%=      5-min Rain = 0
KLA1 211949Z 12009KT 37/16 A2992 RMK A01 T03680158  RH  029%=      5-min Rain = 0
KLA1 211950Z 13010G15KT 37/16 A2992 RMK A01 T03650158  RH  029%=      5-min Rain = 0
KLA1 211951Z 13011KT 36/16 A2992 RMK A01 T03640156  RH  029%=      5-min Rain = 0
KLA1 211952Z 13010KT 36/15 A2992 RMK A01 T03640153  RH  029%=      5-min Rain = 0
KLA1 211953Z 13007KT 36/15 A2992 RMK A01 T03640154  RH  029%=      5-min Rain = 0
KLA1 211954Z 12007KT 37/16 A2992 RMK A01 T03650156  RH  029%=      5-min Rain = 0
KLA1 211955Z 12007KT 37/15 A2992 RMK A01 T03670153  RH  028%=      5-min Rain = 0
KLA1 211956Z 12010G15KT 37/16 A2992 RMK A01 T03680157  RH  029%=      5-min Rain = 0
KLA1 211957Z 13011KT 37/16 A2992 RMK A01 T03710155  RH  028%=      5-min Rain = 0
KLA1 211958Z 14007KT 37/16 A2992 RMK A01 T03680156  RH  028%=      5-min Rain = 0
KLA1 211959Z 17010KT 37/16 A2992 RMK A01 T03690158  RH  029%=      5-min Rain = 0
KLA1 212000Z 17009KT 37/16 A2992 RMK A01 T03690157  RH  028%=      5-min Rain = 0
KLA1 212001Z 17007KT 37/16 A2991 RMK A01 T03680158  RH  029%=      5-min Rain = 0
KLA1 212002Z 15009KT 37/16 A2991 RMK A01 T03670157  RH  029%=      5-min Rain = 0
KLA1 212003Z 14010KT 37/16 A2991 RMK A01 T03660160  RH  029%=      5-min Rain = 0
KLA1 212004Z 11007KT 37/16 A2991 RMK A01 T03670161  RH  030%=      5-min Rain = 0
KLA1 212005Z 13007KT 37/16 A2991 RMK A01 T03660161  RH  030%=      5-min Rain = 0
KLA1 212006Z 14009G14KT 37/16 A2991 RMK A01 T03660162  RH  030%=      5-min Rain = 0
KLA1 212007Z 14014KT 37/16 A2992 RMK A01 T03690159  RH  029%=      5-min Rain = 0
KLA1 212008Z 14010KT 37/16 A2992 RMK A01 T03680158  RH  029%=      5-min Rain = 0
KLA1 212009Z 15007KT 37/16 A2992 RMK A01 T03670161  RH  030%=      5-min Rain = 0
KLA1 212010Z 15007KT 37/16 A2991 RMK A01 T03670158  RH  029%=      5-min Rain = 0
KLA1 212011Z 13004KT 37/16 A2991 RMK A01 T03650157  RH  029%=      5-min Rain = 0
KLA1 212012Z 15009KT 37/16 A2991 RMK A01 T03650158  RH  029%=      5-min Rain = 0
KLA1 212013Z 14009KT 37/16 A2991 RMK A01 T03680159  RH  029%=      5-min Rain = 0
KLA1 212014Z 15012KT 37/16 A2991 RMK A01 T03690159  RH  029%=      5-min Rain = 0
KLA1 212015Z 16014G19KT 37/16 A2991 RMK A01 T03700161  RH  029%=      5-min Rain = 0
KLA1 212016Z 16011KT 37/16 A2991 RMK A01 T03720159  RH  028%=      5-min Rain = 0
KLA1 212017Z 16008KT 37/16 A2991 RMK A01 T03690159  RH  029%=      5-min Rain = 0
KLA1 212018Z 15008KT 37/16 A2991 RMK A01 T03680157  RH  029%=      5-min Rain = 0
KLA1 212019Z 15010KT 37/16 A2991 RMK A01 T03710158  RH  028%=      5-min Rain = 0
KLA1 212020Z 15009KT 37/16 A2991 RMK A01 T03710155  RH  028%=      5-min Rain = 0
KLA1 212021Z 16008KT 37/16 A2991 RMK A01 T03670155  RH  028%=      5-min Rain = 0
KLA1 212022Z 16007KT 37/16 A2991 RMK A01 T03680155  RH  028%=      5-min Rain = 0
KLA1 212023Z 13008KT 37/16 A2991 RMK A01 T03710156  RH  028%=      5-min Rain = 0
KLA1 212024Z 14010KT 37/15 A2991 RMK A01 T03740153  RH  027%=      5-min Rain = 0
KLA1 212025Z 15012KT 37/15 A2991 RMK A01 T03740151  RH  027%=      5-min Rain = 0
KLA1 212026Z 13012KT 38/15 A2991 RMK A01 T03750145  RH  026%=      5-min Rain = 0
KLA1 212027Z 13012KT 38/15 A2991 RMK A01 T03750146  RH  026%=      5-min Rain = 0
KLA1 212028Z 13011KT 38/15 A2991 RMK A01 T03760147  RH  026%=      5-min Rain = 0
KLA1 212029Z 13011KT 38/15 A2991 RMK A01 T03760145  RH  025%=      5-min Rain = 0
KLA1 212030Z 13007KT 37/14 A2991 RMK A01 T03730144  RH  026%=      5-min Rain = 0
KLA1 212031Z 12009KT 37/14 A2991 RMK A01 T03730142  RH  025%=      5-min Rain = 0
KLA1 212032Z 12008KT 37/14 A2991 RMK A01 T03740137  RH  024%=      5-min Rain = 0
KLA1 212033Z 11006KT 37/14 A2991 RMK A01 T03710140  RH  025%=      5-min Rain = 0
KLA1 212034Z 10007KT 37/15 A2991 RMK A01 T03690145  RH  026%=      5-min Rain = 0
KLA1 212035Z 13008KT 37/15 A2991 RMK A01 T03710150  RH  027%=      5-min Rain = 0
KLA1 212036Z 13009KT 38/15 A2991 RMK A01 T03750145  RH  026%=      5-min Rain = 0
KLA1 212037Z 10009KT 38/15 A2991 RMK A01 T03760147  RH  026%=      5-min Rain = 0
KLA1 212038Z 12009G16KT 38/15 A299 RMK A01 T03780146  RH  025%=      5-min Rain = 0
KLA1 212039Z 12010KT 38/15 A2991 RMK A01 T03780147  RH  026%=      5-min Rain = 0
KLA1 212040Z 11007KT 38/15 A299 RMK A01 T03750147  RH  026%=      5-min Rain = 0
KLA1 212041Z 11010KT 37/15 A299 RMK A01 T03740145  RH  026%=      5-min Rain = 0
KLA1 212042Z 11010KT 38/15 A299 RMK A01 T03750145  RH  025%=      5-min Rain = 0
KLA1 212043Z 13009KT 38/14 A299 RMK A01 T03760144  RH  025%=      5-min Rain = 0
KLA1 212044Z 10011KT 38/14 A299 RMK A01 T03760142  RH  025%=      5-min Rain = 0
KLA1 212045Z 10009G14KT 38/14 A299 RMK A01 T03750143  RH  025%=      5-min Rain = 0
KLA1 212046Z 13013KT 38/15 A299 RMK A01 T03770149  RH  026%=      5-min Rain = 0
KLA1 212047Z 13011KT 38/15 A299 RMK A01 T03790151  RH  026%=      5-min Rain = 0
KLA1 212048Z 12011KT 38/15 A299 RMK A01 T03780148  RH  026%=      5-min Rain = 0
KLA1 212049Z 11011KT 38/15 A299 RMK A01 T03750148  RH  026%=      5-min Rain = 0
KLA1 212050Z 10008KT 37/14 A299 RMK A01 T03730144  RH  026%=      5-min Rain = 0
KLA1 212051Z 11011KT 37/15 A299 RMK A01 T03720146  RH  026%=      5-min Rain = 0
KLA1 212052Z 11014KT 38/15 A299 RMK A01 T03760146  RH  026%=      5-min Rain = 0
KLA1 212053Z 11014KT 38/15 A299 RMK A01 T03770146  RH  026%=      5-min Rain = 0
KLA1 212054Z 10013KT 37/15 A299 RMK A01 T03740145  RH  026%=      5-min Rain = 0
KLA1 212055Z 11009KT 37/14 A299 RMK A01 T03720144  RH  026%=      5-min Rain = 0
KLA1 212056Z 11008G15KT 37/15 A299 RMK A01 T03730148  RH  026%=      5-min Rain = 0
KLA1 212057Z 10010KT 38/14 A299 RMK A01 T03760144  RH  025%=      5-min Rain = 0
KLA1 212058Z 11014KT 37/14 A299 RMK A01 T03730143  RH  025%=      5-min Rain = 0
KLA1 212059Z 10014KT 37/14 A299 RMK A01 T03720142  RH  026%=      5-min Rain = 0
KLA1 212100Z 10014KT 37/14 A299 RMK A01 T03720143  RH  026%=      5-min Rain = 0
KLA1 212101Z 11013KT 37/14 A299 RMK A01 T03730144  RH  026%=      5-min Rain = 0
KLA1 212102Z 11010KT 37/14 A299 RMK A01 T03720144  RH  026%=      5-min Rain = 0
KLA1 212103Z 10008KT 37/15 A299 RMK A01 T03730147  RH  026%=      5-min Rain = 0
KLA1 212104Z 13011G16KT 38/15 A299 RMK A01 T03770147  RH  026%=      5-min Rain = 0
KLA1 212105Z 14012KT 38/15 A299 RMK A01 T03790146  RH  025%=      5-min Rain = 0
KLA1 212106Z 13011KT 38/14 A299 RMK A01 T03790143  RH  025%=      5-min Rain = 0
KLA1 212107Z 15010KT 38/14 A299 RMK A01 T03760142  RH  025%=      5-min Rain = 0
KLA1 212108Z 14012G19KT 38/14 A299 RMK A01 T03760142  RH  025%=      5-min Rain = 0
KLA1 212109Z 13015KT 38/14 A299 RMK A01 T03780137  RH  024%=      5-min Rain = 0
KLA1 212110Z 13012KT 38/13 A299 RMK A01 T03780134  RH  023%=      5-min Rain = 0
KLA1 212111Z 14010KT 38/13 A299 RMK A01 T03780133  RH  023%=      5-min Rain = 0
KLA1 212112Z 14011KT 38/13 A299 RMK A01 T03760134  RH  024%=      5-min Rain = 0
KLA1 212113Z 15011G16KT 38/14 A299 RMK A01 T03760136  RH  024%=      5-min Rain = 0
KLA1 212114Z 14011KT 38/14 A299 RMK A01 T03790135  RH  023%=      5-min Rain = 0
KLA1 212115Z 13009KT 38/14 A299 RMK A01 T03820137  RH  023%=      5-min Rain = 0
KLA1 212116Z 14007KT 38/14 A299 RMK A01 T03830138  RH  023%=      5-min Rain = 0
KLA1 212117Z 15009KT 38/14 A299 RMK A01 T03840136  RH  023%=      5-min Rain = 0
KLA1 212118Z 13007KT 38/13 A299 RMK A01 T03810133  RH  023%=      5-min Rain = 0
KLA1 212119Z 14009KT 38/13 A299 RMK A01 T03790134  RH  023%=      5-min Rain = 0
KLA1 212120Z 14015G20KT 38/14 A299 RMK A01 T03800141  RH  024%=      5-min Rain = 0
KLA1 212121Z 15015KT 38/14 A299 RMK A01 T03810139  RH  024%=      5-min Rain = 0
KLA1 212122Z 14012KT 38/14 A299 RMK A01 T03790138  RH  024%=      5-min Rain = 0
KLA1 212123Z 13009KT 38/14 A299 RMK A01 T03780136  RH  024%=      5-min Rain = 0
KLA1 212124Z 15006KT 38/14 A299 RMK A01 T03760138  RH  024%=      5-min Rain = 0
KLA1 212125Z 16009KT 38/14 A299 RMK A01 T03780137  RH  024%=      5-min Rain = 0
KLA1 212126Z 16010KT 38/14 A2989 RMK A01 T03810137  RH  024%=      5-min Rain = 0
KLA1 212127Z 14012G18KT 38/14 A2989 RMK A01 T03810136  RH  023%=      5-min Rain = 0
KLA1 212128Z 13015KT 38/14 A2989 RMK A01 T03810140  RH  024%=      5-min Rain = 0
KLA1 212129Z 13013KT 38/14 A2989 RMK A01 T03810138  RH  024%=      5-min Rain = 0
KLA1 212130Z 13012KT 38/14 A2989 RMK A01 T03810136  RH  023%=      5-min Rain = 0
KLA1 212131Z 12006KT 38/14 A2989 RMK A01 T03780137  RH  024%=      5-min Rain = 0
KLA1 212132Z 14008KT 38/14 A2989 RMK A01 T03780139  RH  024%=      5-min Rain = 0
KLA1 212133Z 14012KT 38/14 A2989 RMK A01 T03790135  RH  023%=      5-min Rain = 0
KLA1 212134Z 17010G15KT 38/13 A2989 RMK A01 T03800132  RH  023%=      5-min Rain = 0
KLA1 212135Z 16011KT 38/13 A2989 RMK A01 T03810133  RH  023%=      5-min Rain = 0
KLA1 212136Z 15010KT 38/14 A2989 RMK A01 T03810143  RH  024%=      5-min Rain = 0
KLA1 212137Z 14010KT 38/14 A2989 RMK A01 T03770144  RH  025%=      5-min Rain = 0
KLA1 212138Z 15010KT 38/14 A2989 RMK A01 T03770144  RH  025%=      5-min Rain = 0
KLA1 212139Z 15013KT 38/14 A2989 RMK A01 T03770144  RH  025%=      5-min Rain = 0
KLA1 212140Z 13011KT 38/14 A2989 RMK A01 T03770142  RH  025%=      5-min Rain = 0
KLA1 212141Z 14014KT 38/14 A2989 RMK A01 T03800142  RH  024%=      5-min Rain = 0
KLA1 212142Z 13012KT 38/14 A2989 RMK A01 T03810142  RH  024%=      5-min Rain = 0
KLA1 212143Z 12009KT 38/14 A2989 RMK A01 T03810143  RH  024%=      5-min Rain = 0
KLA1 212144Z 13008G14KT 38/15 A2989 RMK A01 T03820145  RH  025%=      5-min Rain = 0
KLA1 212145Z 13013KT 38/14 A2989 RMK A01 T03840140  RH  024%=      5-min Rain = 0
KLA1 212146Z 13010KT 38/14 A2989 RMK A01 T03820137  RH  023%=      5-min Rain = 0
KLA1 212147Z 15011KT 38/14 A2989 RMK A01 T03800136  RH  024%=      5-min Rain = 0
KLA1 212148Z 15010G15KT 38/13 A2989 RMK A01 T03810129  RH  022%=      5-min Rain = 0
KLA1 212149Z 15012G17KT 38/13 A2989 RMK A01 T03800133  RH  023%=      5-min Rain = 0
KLA1 212150Z 13013KT 38/14 A2989 RMK A01 T03820137  RH  023%=      5-min Rain = 0
KLA1 212151Z 12010KT 38/14 A2989 RMK A01 T03820138  RH  023%=      5-min Rain = 0
KLA1 212152Z 12009KT 38/14 A2989 RMK A01 T03800137  RH  024%=      5-min Rain = 0
KLA1 212153Z 13009KT 38/14 A2989 RMK A01 T03770138  RH  024%=      5-min Rain = 0
KLA1 212154Z 16012KT 38/14 A2989 RMK A01 T03770136  RH  024%=      5-min Rain = 0
KLA1 212155Z 15011KT 38/13 A2989 RMK A01 T03770133  RH  023%=      5-min Rain = 0
KLA1 212156Z 15012KT 38/14 A2989 RMK A01 T03780137  RH  024%=      5-min Rain = 0
KLA1 212157Z 16010KT 38/14 A2989 RMK A01 T03810139  RH  024%=      5-min Rain = 0
KLA1 212158Z 14012G17KT 38/14 A2989 RMK A01 T03830138  RH  023%=      5-min Rain = 0
KLA1 212159Z 15012KT 38/14 A2989 RMK A01 T03820137  RH  023%=      5-min Rain = 0
KLA1 212200Z 14014KT 38/14 A2989 RMK A01 T03810137  RH  023%=      5-min Rain = 0
KLA1 212201Z 12011KT 38/14 A2989 RMK A01 T03820140  RH  024%=      5-min Rain = 0
KLA1 212202Z 14016KT 39/14 A2989 RMK A01 T03850140  RH  023%=      5-min Rain = 0
KLA1 212203Z 15013KT 39/14 A2989 RMK A01 T03850137  RH  023%=      5-min Rain = 0
KLA1 212204Z 15009KT 38/14 A2989 RMK A01 T03810136  RH  023%=      5-min Rain = 0
KLA1 212205Z 12011KT 38/14 A2989 RMK A01 T03780136  RH  024%=      5-min Rain = 0
KLA1 212206Z 12012G17KT 38/13 A2989 RMK A01 T03780134  RH  023%=      5-min Rain = 0
KLA1 212207Z 14010KT 38/13 A2989 RMK A01 T03770132  RH  023%=      5-min Rain = 0
KLA1 212208Z 13009KT 38/13 A2989 RMK A01 T03790131  RH  023%=      5-min Rain = 0
KLA1 212209Z 11010G15KT 38/13 A2989 RMK A01 T03800131  RH  023%=      5-min Rain = 0
KLA1 212210Z 11010KT 38/13 A2989 RMK A01 T03830131  RH  022%=      5-min Rain = 0
KLA1 212211Z 11015KT 38/13 A2989 RMK A01 T03830129  RH  022%=      5-min Rain = 0
KLA1 212212Z 10016KT 38/13 A2989 RMK A01 T03790126  RH  022%=      5-min Rain = 0
KLA1 212213Z 10014KT 38/13 A2989 RMK A01 T03750126  RH  023%=      5-min Rain = 0
KLA1 212214Z 11012KT 38/13 A2989 RMK A01 T03760126  RH  023%=      5-min Rain = 0
KLA1 212215Z 10009KT 38/13 A2989 RMK A01 T03770127  RH  023%=      5-min Rain = 0
KLA1 212216Z 11012KT 38/13 A2989 RMK A01 T03770128  RH  023%=      5-min Rain = 0
KLA1 212217Z 13011KT 38/13 A2989 RMK A01 T03800128  RH  022%=      5-min Rain = 0
KLA1 212218Z 13011KT 38/13 A2989 RMK A01 T03790125  RH  022%=      5-min Rain = 0
KLA1 212219Z 13009G14KT 38/13 A2988 RMK A01 T03770126  RH  022%=      5-min Rain = 0
KLA1 212220Z 13014G19KT 38/13 A2989 RMK A01 T03780126  RH  022%=      5-min Rain = 0
KLA1 212221Z 11014KT 38/13 A2989 RMK A01 T03770127  RH  022%=      5-min Rain = 0
KLA1 212222Z 11013KT 38/13 A2989 RMK A01 T03760125  RH  022%=      5-min Rain = 0
KLA1 212223Z 11011KT 38/12 A2989 RMK A01 T03760122  RH  022%=      5-min Rain = 0
KLA1 212224Z 12013KT 38/12 A2989 RMK A01 T03760123  RH  022%=      5-min Rain = 0
KLA1 212225Z 11012KT 38/12 A2989 RMK A01 T03760124  RH  022%=      5-min Rain = 0
KLA1 212226Z 12016KT 38/13 A2989 RMK A01 T03770126  RH  022%=      5-min Rain = 0
KLA1 212227Z 13014KT 38/13 A2989 RMK A01 T03770126  RH  022%=      5-min Rain = 0
KLA1 212228Z 12013KT 38/13 A2989 RMK A01 T03760126  RH  023%=      5-min Rain = 0
KLA1 212229Z 12013KT 38/13 A2989 RMK A01 T03760127  RH  023%=      5-min Rain = 0
KLA1 212230Z 11011KT 38/13 A2989 RMK A01 T03750128  RH  023%=      5-min Rain = 0
KLA1 212231Z 14011KT 38/13 A2989 RMK A01 T03750128  RH  023%=      5-min Rain = 0
KLA1 212232Z 13012KT 38/13 A2988 RMK A01 T03750126  RH  023%=      5-min Rain = 0
KLA1 212233Z 11012KT 38/13 A2988 RMK A01 T03780125  RH  022%=      5-min Rain = 0
KLA1 212234Z 11012KT 38/13 A2988 RMK A01 T03780125  RH  022%=      5-min Rain = 0
KLA1 212235Z 14013KT 38/13 A2988 RMK A01 T03780127  RH  022%=      5-min Rain = 0
KLA1 212236Z 13011KT 38/13 A2988 RMK A01 T03780127  RH  022%=      5-min Rain = 0
KLA1 212237Z 13012KT 38/13 A2988 RMK A01 T03790126  RH  022%=      5-min Rain = 0
KLA1 212238Z 11012KT 38/13 A2988 RMK A01 T03790125  RH  022%=      5-min Rain = 0
KLA1 212239Z 12014KT 38/12 A2988 RMK A01 T03780123  RH  022%=      5-min Rain = 0
KLA1 212240Z 13017KT 38/12 A2988 RMK A01 T03780122  RH  022%=      5-min Rain = 0
KLA1 212241Z 12014KT 38/12 A2988 RMK A01 T03770124  RH  022%=      5-min Rain = 0
KLA1 212242Z 12013KT 38/12 A2988 RMK A01 T03780124  RH  022%=      5-min Rain = 0
KLA1 212243Z 12011KT 38/12 A2988 RMK A01 T03780122  RH  022%=      5-min Rain = 0
KLA1 212244Z 12010KT 38/12 A2988 RMK A01 T03780122  RH  022%=      5-min Rain = 0
KLA1 212245Z 12009KT 38/12 A2988 RMK A01 T03780124  RH  022%=      5-min Rain = 0
KLA1 212246Z 12009KT 38/13 A2988 RMK A01 T03780126  RH  022%=      5-min Rain = 0
KLA1 212247Z 11012KT 38/13 A2988 RMK A01 T03790126  RH  022%=      5-min Rain = 0
KLA1 212248Z 12012KT 38/13 A2988 RMK A01 T03780126  RH  022%=      5-min Rain = 0
KLA1 212249Z 15007G12KT 38/12 A2988 RMK A01 T03750124  RH  022%=      5-min Rain = 0
KLA1 212250Z 14009G14KT 37/13 A2988 RMK A01 T03730125  RH  023%=      5-min Rain = 0
KLA1 212251Z 15010G15KT 37/13 A2988 RMK A01 T03740125  RH  023%=      5-min Rain = 0
KLA1 212252Z 14017KT 38/13 A2988 RMK A01 T03750125  RH  022%=      5-min Rain = 0
KLA1 212253Z 14018KT 38/12 A2988 RMK A01 T03760124  RH  022%=      5-min Rain = 0
KLA1 212254Z 13015KT 38/12 A2988 RMK A01 T03760124  RH  022%=      5-min Rain = 0
KLA1 212255Z 13014KT 38/12 A2988 RMK A01 T03770124  RH  022%=      5-min Rain = 0
KLA1 212256Z 12012KT 38/12 A2988 RMK A01 T03770122  RH  022%=      5-min Rain = 0
KLA1 212257Z 12012KT 38/12 A2988 RMK A01 T03760122  RH  022%=      5-min Rain = 0
KLA1 212258Z 14010G16KT 38/13 A2988 RMK A01 T03760125  RH  022%=      5-min Rain = 0
KLA1 212259Z 15012G17KT 38/12 A2988 RMK A01 T03770124  RH  022%=      5-min Rain = 0
KLA1 212300Z 14013G18KT 38/12 A2988 RMK A01 T03770124  RH  022%=      5-min Rain = 0
KLA1 212301Z 13014G20KT 38/12 A2988 RMK A01 T03770122  RH  022%=      5-min Rain = 0
KLA1 212302Z 14013G18KT 38/12 A2988 RMK A01 T03770117  RH  021%=      5-min Rain = 0
KLA1 212303Z 15014KT 38/12 A2988 RMK A01 T03770119  RH  021%=      5-min Rain = 0
KLA1 212304Z 13014KT 38/12 A2988 RMK A01 T03770120  RH  021%=      5-min Rain = 0
KLA1 212305Z 16014KT 38/12 A2988 RMK A01 T03760123  RH  022%=      5-min Rain = 0
KLA1 212306Z 16011KT 38/13 A2988 RMK A01 T03750125  RH  022%=      5-min Rain = 0
KLA1 212307Z 15009KT 38/13 A2988 RMK A01 T03750126  RH  023%=      5-min Rain = 0
KLA1 212308Z 15012KT 38/13 A2988 RMK A01 T03750126  RH  023%=      5-min Rain = 0
KLA1 212309Z 15011KT 38/13 A2988 RMK A01 T03750127  RH  023%=      5-min Rain = 0
KLA1 212310Z 14012KT 38/13 A2988 RMK A01 T03760129  RH  023%=      5-min Rain = 0
KLA1 212311Z 13008KT 38/13 A2988 RMK A01 T03780129  RH  023%=      5-min Rain = 0
KLA1 212312Z 14011G18KT 38/13 A2988 RMK A01 T03800127  RH  022%=      5-min Rain = 0
KLA1 212313Z 14012KT 38/12 A2988 RMK A01 T03790124  RH  022%=      5-min Rain = 0
KLA1 212314Z 15012KT 38/13 A2988 RMK A01 T03760125  RH  022%=      5-min Rain = 0
KLA1 212315Z 16011KT 38/12 A2988 RMK A01 T03750124  RH  022%=      5-min Rain = 0
KLA1 212316Z 15010KT 38/12 A2988 RMK A01 T03750122  RH  022%=      5-min Rain = 0
KLA1 212317Z 13010KT 37/12 A2988 RMK A01 T03740122  RH  022%=      5-min Rain = 0
KLA1 212318Z 12011KT 38/12 A2988 RMK A01 T03750121  RH  022%=      5-min Rain = 0
KLA1 212319Z 13010G16KT 38/12 A2988 RMK A01 T03760117  RH  021%=      5-min Rain = 0
KLA1 212320Z 12010KT 38/11 A2988 RMK A01 T03770113  RH  021%=      5-min Rain = 0
KLA1 212321Z 12011KT 38/11 A2988 RMK A01 T03760113  RH  021%=      5-min Rain = 0
KLA1 212322Z 13010KT 38/12 A2988 RMK A01 T03750118  RH  021%=      5-min Rain = 0
KLA1 212323Z 14011KT 38/12 A2988 RMK A01 T03750122  RH  022%=      5-min Rain = 0
KLA1 212324Z 14011KT 38/12 A2988 RMK A01 T03750123  RH  022%=      5-min Rain = 0
KLA1 212325Z 14014KT 38/12 A2988 RMK A01 T03750123  RH  022%=      5-min Rain = 0
KLA1 212326Z 15011KT 38/12 A2988 RMK A01 T03750124  RH  022%=      5-min Rain = 0
KLA1 212327Z 15011KT 38/12 A2988 RMK A01 T03760124  RH  022%=      5-min Rain = 0
KLA1 212328Z 13016KT 38/12 A2988 RMK A01 T03760122  RH  022%=      5-min Rain = 0
KLA1 212329Z 14013KT 38/12 A2988 RMK A01 T03760121  RH  022%=      5-min Rain = 0
KLA1 212330Z 14011KT 38/12 A2988 RMK A01 T03750120  RH  022%=      5-min Rain = 0
KLA1 212331Z 15010KT 38/12 A2988 RMK A01 T03750119  RH  022%=      5-min Rain = 0
KLA1 212332Z 14009KT 38/12 A2988 RMK A01 T03750118  RH  021%=      5-min Rain = 0
KLA1 212333Z 14008KT 37/12 A2988 RMK A01 T03740119  RH  022%=      5-min Rain = 0
KLA1 212334Z 15013G18KT 37/12 A2988 RMK A01 T03740121  RH  022%=      5-min Rain = 0
KLA1 212335Z 15012KT 38/12 A2988 RMK A01 T03750120  RH  022%=      5-min Rain = 0
KLA1 212336Z 15008KT 38/12 A2988 RMK A01 T03750123  RH  022%=      5-min Rain = 0
KLA1 212337Z 13010KT 38/13 A2988 RMK A01 T03750125  RH  022%=      5-min Rain = 0
KLA1 212338Z 14012KT 38/12 A2988 RMK A01 T03760124  RH  022%=      5-min Rain = 0
KLA1 212339Z 15012KT 38/13 A2988 RMK A01 T03750125  RH  022%=      5-min Rain = 0
KLA1 212340Z 15010KT 38/13 A2988 RMK A01 T03750126  RH  023%=      5-min Rain = 0
KLA1 212341Z 15009KT 38/13 A2988 RMK A01 T03750126  RH  023%=      5-min Rain = 0
KLA1 212342Z 16012G17KT 38/13 A2988 RMK A01 T03750125  RH  022%=      5-min Rain = 0
KLA1 212343Z 16015KT 37/13 A2987 RMK A01 T03740126  RH  023%=      5-min Rain = 0
KLA1 212344Z 16012KT 37/13 A2987 RMK A01 T03720127  RH  023%=      5-min Rain = 0
KLA1 212345Z 16012KT 37/13 A2987 RMK A01 T03720127  RH  023%=      5-min Rain = 0
KLA1 212346Z 16010KT 37/13 A2987 RMK A01 T03710128  RH  023%=      5-min Rain = 0
KLA1 212347Z 15011KT 37/13 A2987 RMK A01 T03710128  RH  023%=      5-min Rain = 0
KLA1 212348Z 14010KT 37/13 A2987 RMK A01 T03710128  RH  023%=      5-min Rain = 0
KLA1 212349Z 13015KT 37/13 A2988 RMK A01 T03720125  RH  023%=      5-min Rain = 0
KLA1 212350Z 14013KT 37/13 A2987 RMK A01 T03710126  RH  023%=      5-min Rain = 0
KLA1 212351Z 15013KT 37/13 A2987 RMK A01 T03710126  RH  023%=      5-min Rain = 0
KLA1 212352Z 15011KT 37/13 A2988 RMK A01 T03700125  RH  023%=      5-min Rain = 0
KLA1 212353Z 14011KT 37/13 A2988 RMK A01 T03700125  RH  023%=      5-min Rain = 0
KLA1 212354Z 13010KT 37/13 A2987 RMK A01 T03700125  RH  023%=      5-min Rain = 0
KLA1 212355Z 14013G18KT 37/13 A2988 RMK A01 T03710125  RH  023%=      5-min Rain = 0
KLA1 212356Z 14014KT 37/12 A2988 RMK A01 T03700122  RH  023%=      5-min Rain = 0
KLA1 212357Z 13013G18KT 37/12 A2988 RMK A01 T03700121  RH  023%=      5-min Rain = 0
KLA1 212358Z 13015KT 37/12 A2988 RMK A01 T03690120  RH  022%=      5-min Rain = 0
KLA1 212359Z 13011KT 37/12 A2988 RMK A01 T03680121  RH  023%=      5-min Rain = 0
KLA1 220000Z 14013KT 37/12 A2988 RMK A01 T03680122  RH  023%=      5-min Rain = 0
KLA1 220001Z 15012G17KT 37/12 A2987 RMK A01 T03680121  RH  023%=      5-min Rain = 0
KLA1 220002Z 12013KT 37/12 A2987 RMK A01 T03680122  RH  023%=      5-min Rain = 0
KLA1 220003Z 13015KT 37/12 A2988 RMK A01 T03680120  RH  023%=      5-min Rain = 0
KLA1 220004Z 13012KT 37/12 A2988 RMK A01 T03670118  RH  022%=      5-min Rain = 0
KLA1 220005Z 14010KT 37/12 A2988 RMK A01 T03660118  RH  023%=      5-min Rain = 0
KLA1 220006Z 14012KT 37/12 A2988 RMK A01 T03660120  RH  023%=      5-min Rain = 0
KLA1 220007Z 14013KT 37/12 A2988 RMK A01 T03670120  RH  023%=      5-min Rain = 0
KLA1 220008Z 14010KT 37/12 A2988 RMK A01 T03670121  RH  023%=      5-min Rain = 0
KLA1 220009Z 14008KT 37/12 A2988 RMK A01 T03670124  RH  023%=      5-min Rain = 0
KLA1 220010Z 14011KT 37/12 A2988 RMK A01 T03680124  RH  023%=      5-min Rain = 0
KLA1 220011Z 13014KT 37/12 A2988 RMK A01 T03680124  RH  023%=      5-min Rain = 0
KLA1 220012Z 14013KT 37/12 A2988 RMK A01 T03670123  RH  023%=      5-min Rain = 0
KLA1 220013Z 14013KT 37/12 A2988 RMK A01 T03660123  RH  023%=      5-min Rain = 0
KLA1 220014Z 14011KT 37/12 A2988 RMK A01 T03650124  RH  024%=      5-min Rain = 0
KLA1 220015Z 14008KT 37/13 A2988 RMK A01 T03650126  RH  024%=      5-min Rain = 0
KLA1 220016Z 15012KT 37/13 A2988 RMK A01 T03650126  RH  024%=      5-min Rain = 0
KLA1 220017Z 15012KT 37/13 A2988 RMK A01 T03660127  RH  024%=      5-min Rain = 0
KLA1 220018Z 15010KT 37/13 A2988 RMK A01 T03650127  RH  024%=      5-min Rain = 0
KLA1 220019Z 15013KT 37/13 A2988 RMK A01 T03650129  RH  024%=      5-min Rain = 0
KLA1 220020Z 14011KT 36/13 A2988 RMK A01 T03640131  RH  025%=      5-min Rain = 0
KLA1 220021Z 14010KT 36/13 A2988 RMK A01 T03640133  RH  025%=      5-min Rain = 0
KLA1 220022Z 15009KT 36/13 A2988 RMK A01 T03640134  RH  025%=      5-min Rain = 0
KLA1 220023Z 14013KT 36/14 A2988 RMK A01 T03640135  RH  026%=      5-min Rain = 0
KLA1 220024Z 14012KT 36/14 A2988 RMK A01 T03630137  RH  026%=      5-min Rain = 0
KLA1 220025Z 15014KT 36/14 A2988 RMK A01 T03630136  RH  026%=      5-min Rain = 0
KLA1 220026Z 15016KT 36/14 A2988 RMK A01 T03630135  RH  026%=      5-min Rain = 0
KLA1 220027Z 15015KT 36/13 A2988 RMK A01 T03620132  RH  025%=      5-min Rain = 0
KLA1 220028Z 15013KT 36/13 A2988 RMK A01 T03610132  RH  025%=      5-min Rain = 0
KLA1 220029Z 14012G18KT 36/13 A2988 RMK A01 T03610133  RH  026%=      5-min Rain = 0
KLA1 220030Z 14015KT 36/14 A2988 RMK A01 T03610135  RH  026%=      5-min Rain = 0
KLA1 220031Z 14010KT 36/14 A2988 RMK A01 T03600136  RH  026%=      5-min Rain = 0
KLA1 220032Z 14012KT 36/14 A2988 RMK A01 T03600136  RH  026%=      5-min Rain = 0
KLA1 220033Z 14009KT 36/14 A2988 RMK A01 T03600136  RH  026%=      5-min Rain = 0
KLA1 220034Z 14009KT 36/14 A2988 RMK A01 T03600135  RH  026%=      5-min Rain = 0
KLA1 220035Z 14008KT 36/14 A2988 RMK A01 T03600135  RH  026%=      5-min Rain = 0
KLA1 220036Z 13010G15KT 36/14 A2988 RMK A01 T03600135  RH  026%=      5-min Rain = 0
KLA1 220037Z 13009KT 36/14 A2988 RMK A01 T03600136  RH  026%=      5-min Rain = 0
KLA1 220038Z 13012KT 36/14 A2988 RMK A01 T03600137  RH  026%=      5-min Rain = 0
KLA1 220039Z 13013KT 36/14 A2988 RMK A01 T03600135  RH  026%=      5-min Rain = 0
KLA1 220040Z 13013KT 36/13 A2988 RMK A01 T03580134  RH  026%=      5-min Rain = 0
KLA1 220041Z 14012KT 36/13 A2988 RMK A01 T03570134  RH  026%=      5-min Rain = 0
KLA1 220042Z 14009KT 36/14 A2988 RMK A01 T03570135  RH  026%=      5-min Rain = 0
KLA1 220043Z 14012KT 36/14 A2988 RMK A01 T03570135  RH  026%=      5-min Rain = 0
KLA1 220044Z 14011KT 36/14 A2988 RMK A01 T03580135  RH  026%=      5-min Rain = 0
KLA1 220045Z 14009KT 36/14 A2988 RMK A01 T03570135  RH  026%=      5-min Rain = 0
KLA1 220046Z 14008KT 36/14 A2988 RMK A01 T03570136  RH  027%=      5-min Rain = 0
KLA1 220047Z 15010KT 36/14 A2988 RMK A01 T03570136  RH  027%=      5-min Rain = 0
KLA1 220048Z 15012KT 36/14 A2988 RMK A01 T03570135  RH  026%=      5-min Rain = 0
KLA1 220049Z 15009KT 36/14 A2988 RMK A01 T03570135  RH  026%=      5-min Rain = 0
KLA1 220050Z 14013KT 36/13 A2988 RMK A01 T03570134  RH  026%=      5-min Rain = 0
KLA1 220051Z 13014KT 36/14 A2988 RMK A01 T03560136  RH  027%=      5-min Rain = 0
KLA1 220052Z 13013KT 36/14 A2988 RMK A01 T03550136  RH  027%=      5-min Rain = 0
KLA1 220053Z 14012KT 35/14 A2988 RMK A01 T03540136  RH  027%=      5-min Rain = 0
KLA1 220054Z 14011KT 35/14 A2988 RMK A01 T03540136  RH  027%=      5-min Rain = 0
KLA1 220055Z 14011KT 35/14 A2988 RMK A01 T03540136  RH  027%=      5-min Rain = 0
KLA1 220056Z 13010KT 35/14 A2988 RMK A01 T03530137  RH  027%=      5-min Rain = 0
KLA1 220057Z 12010KT 35/14 A2988 RMK A01 T03530138  RH  027%=      5-min Rain = 0
KLA1 220058Z 13011KT 35/14 A2988 RMK A01 T03530138  RH  028%=      5-min Rain = 0
KLA1 220059Z 14010KT 35/14 A2988 RMK A01 T03520139  RH  028%=      5-min Rain = 0
KLA1 220100Z 13011KT 35/14 A2988 RMK A01 T03520139  RH  028%=      5-min Rain = 0
KLA1 220101Z 15009KT 35/14 A2988 RMK A01 T03510140  RH  028%=      5-min Rain = 0
KLA1 220102Z 14008KT 35/14 A2988 RMK A01 T03510140  RH  028%=      5-min Rain = 0
KLA1 220103Z 14011KT 35/14 A2988 RMK A01 T03500140  RH  028%=      5-min Rain = 0
KLA1 220104Z 14010KT 35/14 A2989 RMK A01 T03500139  RH  028%=      5-min Rain = 0
KLA1 220105Z 13011KT 35/14 A2989 RMK A01 T03500139  RH  028%=      5-min Rain = 0
KLA1 220106Z 12012KT 35/14 A2989 RMK A01 T03500136  RH  028%=      5-min Rain = 0
KLA1 220107Z 12010KT 35/14 A2989 RMK A01 T03490135  RH  028%=      5-min Rain = 0
KLA1 220108Z 13012KT 35/14 A2989 RMK A01 T03490135  RH  028%=      5-min Rain = 0
KLA1 220109Z 12010KT 35/13 A2989 RMK A01 T03480134  RH  028%=      5-min Rain = 0
KLA1 220110Z 13011KT 35/13 A2989 RMK A01 T03480134  RH  028%=      5-min Rain = 0
KLA1 220111Z 13009KT 35/14 A2989 RMK A01 T03480135  RH  028%=      5-min Rain = 0
KLA1 220112Z 13010KT 35/14 A2989 RMK A01 T03470136  RH  028%=      5-min Rain = 0
KLA1 220113Z 13010G15KT 35/14 A2989 RMK A01 T03470137  RH  028%=      5-min Rain = 0
KLA1 220114Z 13011KT 35/14 A2989 RMK A01 T03470136  RH  028%=      5-min Rain = 0
KLA1 220115Z 13011KT 35/14 A2989 RMK A01 T03470136  RH  028%=      5-min Rain = 0
KLA1 220116Z 14012KT 35/14 A299 RMK A01 T03470136  RH  028%=      5-min Rain = 0
KLA1 220117Z 14011KT 35/14 A299 RMK A01 T03460136  RH  028%=      5-min Rain = 0
KLA1 220118Z 13009KT 35/14 A299 RMK A01 T03460136  RH  028%=      5-min Rain = 0
KLA1 220119Z 14009KT 35/14 A299 RMK A01 T03450136  RH  028%=      5-min Rain = 0
KLA1 220120Z 14009KT 35/14 A299 RMK A01 T03450136  RH  029%=      5-min Rain = 0
KLA1 220121Z 14009KT 35/14 A299 RMK A01 T03450137  RH  029%=      5-min Rain = 0
KLA1 220122Z 14010KT 34/14 A299 RMK A01 T03440136  RH  029%=      5-min Rain = 0
KLA1 220123Z 13008KT 34/14 A299 RMK A01 T03440136  RH  029%=      5-min Rain = 0
KLA1 220124Z 14007KT 34/14 A299 RMK A01 T03430137  RH  029%=      5-min Rain = 0
KLA1 220125Z 14009KT 34/14 A299 RMK A01 T03420137  RH  029%=      5-min Rain = 0
KLA1 220126Z 14009KT 34/14 A299 RMK A01 T03420138  RH  029%=      5-min Rain = 0
KLA1 220127Z 13010KT 34/14 A299 RMK A01 T03420138  RH  029%=      5-min Rain = 0
KLA1 220128Z 13009KT 34/14 A299 RMK A01 T03420138  RH  029%=      5-min Rain = 0
KLA1 220129Z 13008KT 34/14 A299 RMK A01 T03410137  RH  029%=      5-min Rain = 0
KLA1 220130Z 14011KT 34/14 A299 RMK A01 T03410137  RH  029%=      5-min Rain = 0
KLA1 220131Z 14011KT 34/14 A299 RMK A01 T03400135  RH  029%=      5-min Rain = 0
KLA1 220132Z 14009KT 34/14 A299 RMK A01 T03400135  RH  029%=      5-min Rain = 0
KLA1 220133Z 13008KT 34/14 A299 RMK A01 T03400136  RH  029%=      5-min Rain = 0
KLA1 220134Z 14009KT 34/14 A299 RMK A01 T03400137  RH  030%=      5-min Rain = 0
KLA1 220135Z 14011KT 34/14 A299 RMK A01 T03390138  RH  030%=      5-min Rain = 0
KLA1 220136Z 14013KT 34/14 A299 RMK A01 T03390138  RH  030%=      5-min Rain = 0
KLA1 220137Z 14010KT 34/14 A299 RMK A01 T03390137  RH  030%=      5-min Rain = 0
KLA1 220138Z 14010KT 34/14 A299 RMK A01 T03390137  RH  030%=      5-min Rain = 0
KLA1 220139Z 14012KT 34/14 A299 RMK A01 T03390136  RH  029%=      5-min Rain = 0
KLA1 220140Z 14012KT 34/14 A299 RMK A01 T03390136  RH  029%=      5-min Rain = 0
KLA1 220141Z 14010KT 34/14 A299 RMK A01 T03390135  RH  029%=      5-min Rain = 0
KLA1 220142Z 14010KT 34/14 A299 RMK A01 T03390135  RH  029%=      5-min Rain = 0
KLA1 220143Z 14008KT 34/14 A299 RMK A01 T03380135  RH  029%=      5-min Rain = 0
KLA1 220144Z 14010KT 34/14 A299 RMK A01 T03370136  RH  030%=      5-min Rain = 0
KLA1 220145Z 14010KT 34/14 A299 RMK A01 T03360135  RH  030%=      5-min Rain = 0
KLA1 220146Z 14009KT 34/14 A299 RMK A01 T03370136  RH  030%=      5-min Rain = 0
KLA1 220147Z 14009KT 34/14 A299 RMK A01 T03370136  RH  030%=      5-min Rain = 0
KLA1 220148Z 14010KT 34/14 A299 RMK A01 T03360136  RH  030%=      5-min Rain = 0
KLA1 220149Z 13009KT 34/14 A299 RMK A01 T03360136  RH  030%=      5-min Rain = 0
KLA1 220150Z 14008KT 34/14 A299 RMK A01 T03350137  RH  030%=      5-min Rain = 0
KLA1 220151Z 14007KT 34/14 A299 RMK A01 T03350137  RH  030%=      5-min Rain = 0
KLA1 220152Z 14007KT 33/14 A299 RMK A01 T03340137  RH  030%=      5-min Rain = 0
KLA1 220153Z 14009KT 33/14 A299 RMK A01 T03330137  RH  031%=      5-min Rain = 0
KLA1 220154Z 14008KT 33/14 A299 RMK A01 T03330138  RH  031%=      5-min Rain = 0
KLA1 220155Z 14006KT 33/14 A2991 RMK A01 T03330138  RH  031%=      5-min Rain = 0
KLA1 220156Z 13008KT 33/14 A2991 RMK A01 T03320138  RH  031%=      5-min Rain = 0
KLA1 220157Z 14008KT 33/14 A2991 RMK A01 T03310139  RH  031%=      5-min Rain = 0
KLA1 220158Z 13007KT 33/14 A2991 RMK A01 T03310138  RH  031%=      5-min Rain = 0
KLA1 220159Z 14007KT 33/14 A2991 RMK A01 T03300139  RH  032%=      5-min Rain = 0
KLA1 220200Z 14008KT 33/14 A2991 RMK A01 T03300139  RH  032%=      5-min Rain = 0
KLA1 220201Z 13008KT 33/14 A2991 RMK A01 T03290139  RH  032%=      5-min Rain = 0
KLA1 220202Z 13006KT 33/14 A2991 RMK A01 T03290139  RH  032%=      5-min Rain = 0
KLA1 220203Z 13006KT 33/14 A2991 RMK A01 T03290139  RH  032%=      5-min Rain = 0
KLA1 220204Z 14007KT 33/14 A2991 RMK A01 T03280139  RH  032%=      5-min Rain = 0
KLA1 220205Z 14007KT 33/14 A2991 RMK A01 T03280139  RH  032%=      5-min Rain = 0
KLA1 220206Z 14007KT 33/14 A2991 RMK A01 T03280139  RH  032%=      5-min Rain = 0
KLA1 220207Z 13007KT 33/14 A2991 RMK A01 T03280139  RH  032%=      5-min Rain = 0
KLA1 220208Z 14006KT 33/14 A2991 RMK A01 T03270139  RH  032%=      5-min Rain = 0
KLA1 220209Z 13006KT 33/14 A2991 RMK A01 T03270140  RH  032%=      5-min Rain = 0
KLA1 220210Z 14005KT 33/14 A2991 RMK A01 T03260139  RH  032%=      5-min Rain = 0
KLA1 220211Z 13007KT 33/14 A2991 RMK A01 T03260140  RH  032%=      5-min Rain = 0
KLA1 220212Z 14005KT 33/14 A2991 RMK A01 T03260140  RH  032%=      5-min Rain = 0
KLA1 220213Z 14006KT 33/14 A2991 RMK A01 T03260140  RH  032%=      5-min Rain = 0
KLA1 220214Z 14006KT 33/14 A2991 RMK A01 T03260140  RH  033%=      5-min Rain = 0
KLA1 220215Z 13006KT 33/14 A2991 RMK A01 T03250140  RH  033%=      5-min Rain = 0
KLA1 220216Z 14006KT 32/14 A2991 RMK A01 T03240141  RH  033%=      5-min Rain = 0
KLA1 220217Z 14006KT 32/14 A2991 RMK A01 T03240140  RH  033%=      5-min Rain = 0
KLA1 220218Z 14005KT 32/14 A2991 RMK A01 T03240141  RH  033%=      5-min Rain = 0
KLA1 220219Z 13005KT 32/14 A2991 RMK A01 T03230141  RH  033%=      5-min Rain = 0
KLA1 220220Z 14005KT 32/14 A2991 RMK A01 T03230141  RH  033%=      5-min Rain = 0
KLA1 220221Z 14005KT 32/14 A2991 RMK A01 T03220141  RH  033%=      5-min Rain = 0
KLA1 220222Z 13005KT 32/14 A2991 RMK A01 T03210141  RH  034%=      5-min Rain = 0
KLA1 220223Z 13004KT 32/14 A2991 RMK A01 T03200141  RH  034%=      5-min Rain = 0
KLA1 220224Z 13003KT 32/14 A2991 RMK A01 T03200141  RH  034%=      5-min Rain = 0
KLA1 220225Z 13004KT 32/14 A2991 RMK A01 T03190141  RH  034%=      5-min Rain = 0
KLA1 220226Z 13004KT 32/14 A2991 RMK A01 T03180141  RH  034%=      5-min Rain = 0
KLA1 220227Z 13004KT 32/14 A2991 RMK A01 T03180142  RH  034%=      5-min Rain = 0
KLA1 220228Z 13005KT 32/14 A2991 RMK A01 T03170142  RH  035%=      5-min Rain = 0
KLA1 220229Z 13005KT 32/14 A2991 RMK A01 T03170142  RH  035%=      5-min Rain = 0
KLA1 220230Z 13005KT 32/14 A2991 RMK A01 T03170142  RH  035%=      5-min Rain = 0
KLA1 220231Z 13005KT 32/14 A2991 RMK A01 T03160143  RH  035%=      5-min Rain = 0
KLA1 220232Z 13006KT 32/14 A2991 RMK A01 T03160143  RH  035%=      5-min Rain = 0
KLA1 220233Z 13005KT 32/14 A2991 RMK A01 T03160143  RH  035%=      5-min Rain = 0
KLA1 220234Z 13005KT 32/14 A2992 RMK A01 T03160144  RH  035%=      5-min Rain = 0
KLA1 220235Z 13004KT 32/14 A2992 RMK A01 T03150144  RH  035%=      5-min Rain = 0
KLA1 220236Z 12004KT 32/14 A2992 RMK A01 T03150144  RH  035%=      5-min Rain = 0
KLA1 220237Z 13004KT 31/14 A2992 RMK A01 T03140143  RH  035%=      5-min Rain = 0
KLA1 220238Z 13005KT 31/14 A2992 RMK A01 T03140144  RH  035%=      5-min Rain = 0
KLA1 220239Z 12004KT 31/14 A2992 RMK A01 T03140144  RH  035%=      5-min Rain = 0
KLA1 220240Z 13004KT 31/14 A2992 RMK A01 T03140144  RH  036%=      5-min Rain = 0
KLA1 220241Z 12004KT 31/14 A2992 RMK A01 T03140144  RH  036%=      5-min Rain = 0
KLA1 220242Z 13005KT 31/14 A2992 RMK A01 T03140144  RH  036%=      5-min Rain = 0
KLA1 220243Z 14004KT 31/14 A2992 RMK A01 T03140144  RH  036%=      5-min Rain = 0
KLA1 220244Z 14005KT 31/14 A2992 RMK A01 T03130144  RH  036%=      5-min Rain = 0
KLA1 220245Z 13005KT 31/14 A2992 RMK A01 T03120144  RH  036%=      5-min Rain = 0
KLA1 220246Z 14004KT 31/14 A2992 RMK A01 T03120144  RH  036%=      5-min Rain = 0
KLA1 220247Z 14004KT 31/15 A2992 RMK A01 T03110145  RH  036%=      5-min Rain = 0
KLA1 220248Z 14004KT 31/14 A2992 RMK A01 T03100144  RH  037%=      5-min Rain = 0
KLA1 220249Z 13004KT 31/14 A2992 RMK A01 T03090144  RH  037%=      5-min Rain = 0
KLA1 220250Z 13004KT 31/14 A2992 RMK A01 T03090144  RH  037%=      5-min Rain = 0
KLA1 220251Z 13004KT 31/15 A2992 RMK A01 T03080145  RH  037%=      5-min Rain = 0
KLA1 220252Z 13004KT 31/15 A2992 RMK A01 T03080145  RH  037%=      5-min Rain = 0
KLA1 220253Z 14004KT 31/14 A2992 RMK A01 T03070144  RH  037%=      5-min Rain = 0
KLA1 220254Z 13004KT 31/15 A2992 RMK A01 T03070145  RH  037%=      5-min Rain = 0
KLA1 220255Z 13004KT 31/15 A2993 RMK A01 T03060145  RH  037%=      5-min Rain = 0
KLA1 220256Z 13004KT 31/15 A2993 RMK A01 T03050145  RH  038%=      5-min Rain = 0
KLA1 220257Z 13004KT 31/15 A2993 RMK A01 T03050145  RH  038%=      5-min Rain = 0
KLA1 220258Z 13003KT 31/15 A2993 RMK A01 T03050145  RH  038%=      5-min Rain = 0
KLA1 220259Z 12003KT 30/15 A2993 RMK A01 T03040145  RH  038%=      5-min Rain = 0
KLA1 220300Z 12003KT 30/15 A2993 RMK A01 T03030145  RH  038%=      5-min Rain = 0
KLA1 220301Z 12003KT 30/14 A2993 RMK A01 T03030144  RH  038%=      5-min Rain = 0
KLA1 220302Z 12003KT 30/15 A2993 RMK A01 T03030145  RH  038%=      5-min Rain = 0
KLA1 220303Z 12003KT 30/15 A2993 RMK A01 T03020145  RH  038%=      5-min Rain = 0
KLA1 220304Z 12004KT 30/15 A2993 RMK A01 T03020145  RH  038%=      5-min Rain = 0
KLA1 220305Z 12004KT 30/15 A2993 RMK A01 T03020146  RH  039%=      5-min Rain = 0
KLA1 220306Z 12004KT 30/15 A2993 RMK A01 T03020146  RH  039%=      5-min Rain = 0
KLA1 220307Z 12005KT 30/15 A2993 RMK A01 T03020146  RH  039%=      5-min Rain = 0
KLA1 220308Z 13005KT 30/15 A2993 RMK A01 T03010146  RH  039%=      5-min Rain = 0
KLA1 220309Z 13004KT 30/15 A2993 RMK A01 T03010146  RH  039%=      5-min Rain = 0
KLA1 220310Z 13004KT 30/15 A2993 RMK A01 T03010146  RH  039%=      5-min Rain = 0
KLA1 220311Z 13004KT 30/15 A2993 RMK A01 T03010146  RH  039%=      5-min Rain = 0
KLA1 220312Z 13004KT 30/15 A2993 RMK A01 T03010147  RH  039%=      5-min Rain = 0
KLA1 220313Z 13005KT 30/15 A2993 RMK A01 T03010147  RH  039%=      5-min Rain = 0
KLA1 220314Z 12005KT 30/15 A2993 RMK A01 T03000147  RH  039%=      5-min Rain = 0
KLA1 220315Z 13004KT 30/15 A2993 RMK A01 T03000147  RH  039%=      5-min Rain = 0
KLA1 220316Z 13004KT 30/15 A2993 RMK A01 T03000147  RH  040%=      5-min Rain = 0
KLA1 220317Z 12004KT 30/15 A2993 RMK A01 T03000148  RH  040%=      5-min Rain = 0
KLA1 220318Z 13005KT 30/15 A2993 RMK A01 T03000148  RH  040%=      5-min Rain = 0
KLA1 220319Z 13004KT 30/15 A2993 RMK A01 T02990148  RH  040%=      5-min Rain = 0
KLA1 220320Z 13005KT 30/15 A2993 RMK A01 T02990148  RH  040%=      5-min Rain = 0
KLA1 220321Z 13005KT 30/15 A2993 RMK A01 T02990149  RH  040%=      5-min Rain = 0
KLA1 220322Z 13005KT 30/15 A2993 RMK A01 T02980148  RH  040%=      5-min Rain = 0
KLA1 220323Z 13005KT 30/15 A2993 RMK A01 T02980149  RH  040%=      5-min Rain = 0
KLA1 220324Z 13005KT 30/15 A2993 RMK A01 T02990149  RH  040%=      5-min Rain = 0
KLA1 220325Z 13005KT 30/15 A2993 RMK A01 T02990149  RH  040%=      5-min Rain = 0
KLA1 220326Z 13005KT 30/15 A2993 RMK A01 T02990150  RH  040%=      5-min Rain = 0
KLA1 220327Z 13005KT 30/15 A2993 RMK A01 T02990151  RH  041%=      5-min Rain = 0
KLA1 220328Z 13005KT 30/15 A2993 RMK A01 T02990151  RH  041%=      5-min Rain = 0
KLA1 220329Z 13005KT 30/15 A2993 RMK A01 T02980151  RH  041%=      5-min Rain = 0
KLA1 220330Z 13006KT 30/15 A2993 RMK A01 T02980151  RH  041%=      5-min Rain = 0
KLA1 220331Z 13005KT 30/15 A2993 RMK A01 T02980152  RH  041%=      5-min Rain = 0
KLA1 220332Z 14006KT 30/15 A2993 RMK A01 T02980152  RH  041%=      5-min Rain = 0
KLA1 220333Z 13005KT 30/15 A2993 RMK A01 T02970153  RH  041%=      5-min Rain = 0
KLA1 220334Z 14005KT 30/15 A2993 RMK A01 T02970152  RH  041%=      5-min Rain = 0
KLA1 220335Z 14006KT 30/15 A2993 RMK A01 T02970153  RH  042%=      5-min Rain = 0
KLA1 220336Z 14006KT 30/15 A2994 RMK A01 T02960153  RH  042%=      5-min Rain = 0
KLA1 220337Z 13005KT 30/15 A2994 RMK A01 T02960153  RH  042%=      5-min Rain = 0
KLA1 220338Z 14005KT 30/15 A2994 RMK A01 T02960153  RH  042%=      5-min Rain = 0
KLA1 220339Z 14004KT 30/15 A2994 RMK A01 T02960153  RH  042%=      5-min Rain = 0
KLA1 220340Z 15004KT 30/15 A2994 RMK A01 T02960154  RH  042%=      5-min Rain = 0
KLA1 220341Z 14005KT 30/15 A2994 RMK A01 T02960154  RH  042%=      5-min Rain = 0
KLA1 220342Z 14005KT 30/15 A2994 RMK A01 T02960154  RH  042%=      5-min Rain = 0
KLA1 220343Z 14005KT 30/15 A2994 RMK A01 T02960154  RH  042%=      5-min Rain = 0
KLA1 220344Z 14004KT 30/15 A2994 RMK A01 T02960154  RH  042%=      5-min Rain = 0
KLA1 220345Z 14004KT 30/15 A2994 RMK A01 T02960154  RH  042%=      5-min Rain = 0
KLA1 220346Z 14004KT 30/15 A2994 RMK A01 T02960154  RH  042%=      5-min Rain = 0
KLA1 220347Z 14004KT 30/15 A2994 RMK A01 T02960154  RH  042%=      5-min Rain = 0
KLA1 220348Z 14004KT 30/15 A2994 RMK A01 T02960154  RH  042%=      5-min Rain = 0
KLA1 220349Z 13004KT 30/15 A2994 RMK A01 T02960154  RH  042%=      5-min Rain = 0
KLA1 220350Z 13004KT 30/15 A2994 RMK A01 T02950154  RH  042%=      5-min Rain = 0
KLA1 220351Z 13004KT 30/15 A2994 RMK A01 T02950154  RH  042%=      5-min Rain = 0
KLA1 220352Z 13006KT 30/15 A2994 RMK A01 T02960154  RH  042%=      5-min Rain = 0
KLA1 220353Z 12008KT 30/16 A2994 RMK A01 T02970155  RH  042%=      5-min Rain = 0
KLA1 220354Z 12007KT 30/16 A2994 RMK A01 T02990155  RH  042%=      5-min Rain = 0
KLA1 220355Z 12008KT 30/16 A2994 RMK A01 T03020156  RH  041%=      5-min Rain = 0
KLA1 220356Z 11008KT 30/16 A2994 RMK A01 T03040156  RH  041%=      5-min Rain = 0
KLA1 220357Z 12008KT 31/16 A2994 RMK A01 T03050156  RH  040%=      5-min Rain = 0
KLA1 220358Z 12008KT 31/16 A2994 RMK A01 T03070156  RH  040%=      5-min Rain = 0
KLA1 220359Z 12009KT 31/16 A2994 RMK A01 T03080156  RH  040%=      5-min Rain = 0
KLA1 220400Z 12008KT 31/16 A2994 RMK A01 T03080156  RH  040%=      5-min Rain = 0
KLA1 220401Z 12006KT 31/16 A2994 RMK A01 T03080156  RH  040%=      5-min Rain = 0
KLA1 220402Z 12007KT 31/16 A2994 RMK A01 T03080156  RH  040%=      5-min Rain = 0
KLA1 220403Z 12007KT 31/16 A2994 RMK A01 T03080157  RH  040%=      5-min Rain = 0
KLA1 220404Z 13006KT 31/16 A2994 RMK A01 T03080157  RH  040%=      5-min Rain = 0
KLA1 220405Z 12005KT 31/16 A2994 RMK A01 T03070157  RH  040%=      5-min Rain = 0
KLA1 220406Z 12006KT 31/16 A2995 RMK A01 T03070157  RH  040%=      5-min Rain = 0
KLA1 220407Z 12007KT 31/16 A2995 RMK A01 T03060157  RH  040%=      5-min Rain = 0
KLA1 220408Z 11006KT 31/16 A2995 RMK A01 T03060156  RH  040%=      5-min Rain = 0
KLA1 220409Z 12005KT 31/16 A2995 RMK A01 T03060157  RH  040%=      5-min Rain = 0
KLA1 220410Z 12004KT 31/16 A2995 RMK A01 T03060157  RH  040%=      5-min Rain = 0
KLA1 220411Z 12005KT 31/16 A2995 RMK A01 T03050157  RH  041%=      5-min Rain = 0
KLA1 220412Z 12004KT 31/16 A2995 RMK A01 T03050157  RH  041%=      5-min Rain = 0
KLA1 220413Z 12005KT 31/16 A2995 RMK A01 T03050157  RH  041%=      5-min Rain = 0
KLA1 220414Z 12006KT 30/16 A2995 RMK A01 T03040157  RH  041%=      5-min Rain = 0
KLA1 220415Z 13005KT 30/16 A2995 RMK A01 T03040157  RH  041%=      5-min Rain = 0
KLA1 220416Z 13006KT 30/16 A2995 RMK A01 T03040157  RH  041%=      5-min Rain = 0
KLA1 220417Z 12004KT 30/16 A2995 RMK A01 T03030157  RH  041%=      5-min Rain = 0
KLA1 220418Z 12004KT 30/16 A2995 RMK A01 T03030157  RH  041%=      5-min Rain = 0
KLA1 220419Z 12004KT 30/16 A2995 RMK A01 T03030157  RH  041%=      5-min Rain = 0
KLA1 220420Z 12005KT 30/16 A2995 RMK A01 T03020157  RH  041%=      5-min Rain = 0
KLA1 220421Z 11004KT 30/16 A2995 RMK A01 T03020157  RH  041%=      5-min Rain = 0
KLA1 220422Z 12004KT 30/16 A2995 RMK A01 T03020157  RH  041%=      5-min Rain = 0
KLA1 220423Z 12004KT 30/16 A2995 RMK A01 T03020157  RH  042%=      5-min Rain = 0
KLA1 220424Z 12005KT 30/16 A2995 RMK A01 T03020157  RH  041%=      5-min Rain = 0
KLA1 220425Z 11006KT 30/16 A2995 RMK A01 T03020156  RH  041%=      5-min Rain = 0
KLA1 220426Z 12006KT 30/16 A2995 RMK A01 T03020157  RH  041%=      5-min Rain = 0
KLA1 220427Z 12005KT 30/16 A2995 RMK A01 T03030157  RH  041%=      5-min Rain = 0
KLA1 220428Z 12005KT 30/16 A2995 RMK A01 T03030156  RH  041%=      5-min Rain = 0
KLA1 220429Z 11005KT 30/16 A2995 RMK A01 T03030156  RH  041%=      5-min Rain = 0
KLA1 220430Z 12005KT 30/16 A2995 RMK A01 T03030156  RH  041%=      5-min Rain = 0
KLA1 220431Z 11005KT 30/16 A2995 RMK A01 T03030156  RH  041%=      5-min Rain = 0
KLA1 220432Z 12004KT 30/16 A2995 RMK A01 T03030156  RH  041%=      5-min Rain = 0
KLA1 220433Z 12005KT 30/16 A2995 RMK A01 T03030156  RH  041%=      5-min Rain = 0
KLA1 220434Z 12005KT 30/16 A2995 RMK A01 T03020156  RH  041%=      5-min Rain = 0
KLA1 220435Z 12004KT 30/16 A2995 RMK A01 T03030156  RH  041%=      5-min Rain = 0
KLA1 220436Z 11004KT 30/16 A2995 RMK A01 T03030156  RH  041%=      5-min Rain = 0
KLA1 220437Z 12004KT 30/16 A2995 RMK A01 T03020156  RH  041%=      5-min Rain = 0
KLA1 220438Z 11004KT 30/16 A2996 RMK A01 T03020156  RH  041%=      5-min Rain = 0
KLA1 220439Z 12004KT 30/16 A2996 RMK A01 T03010156  RH  041%=      5-min Rain = 0
KLA1 220440Z 13003KT 30/16 A2996 RMK A01 T03000156  RH  042%=      5-min Rain = 0
KLA1 220441Z 13005KT 30/16 A2996 RMK A01 T03000156  RH  042%=      5-min Rain = 0
KLA1 220442Z 13004KT 30/16 A2996 RMK A01 T02990155  RH  042%=      5-min Rain = 0
KLA1 220443Z 13005KT 30/16 A2996 RMK A01 T02980155  RH  042%=      5-min Rain = 0
KLA1 220444Z 13005KT 30/16 A2996 RMK A01 T02970155  RH  042%=      5-min Rain = 0
KLA1 220445Z 13008KT 30/16 A2996 RMK A01 T02970155  RH  042%=      5-min Rain = 0
KLA1 220446Z 13006KT 30/16 A2996 RMK A01 T02970155  RH  042%=      5-min Rain = 0
KLA1 220447Z 13006KT 30/16 A2996 RMK A01 T02980155  RH  042%=      5-min Rain = 0
KLA1 220448Z 13005KT 30/16 A2996 RMK A01 T02980155  RH  042%=      5-min Rain = 0
KLA1 220449Z 12005KT 30/16 A2996 RMK A01 T02980155  RH  042%=      5-min Rain = 0
KLA1 220450Z 13005KT 30/16 A2996 RMK A01 T02980155  RH  042%=      5-min Rain = 0
KLA1 220451Z 12007KT 30/16 A2996 RMK A01 T02980155  RH  042%=      5-min Rain = 0
KLA1 220452Z 12006KT 30/16 A2996 RMK A01 T02980155  RH  042%=      5-min Rain = 0
KLA1 220453Z 12006KT 30/16 A2996 RMK A01 T02990155  RH  042%=      5-min Rain = 0
KLA1 220454Z 11005KT 30/16 A2996 RMK A01 T03000155  RH  041%=      5-min Rain = 0
KLA1 220455Z 10008KT 30/16 A2996 RMK A01 T03010155  RH  041%=      5-min Rain = 0
KLA1 220456Z 11009KT 30/15 A2996 RMK A01 T03030154  RH  041%=      5-min Rain = 0
KLA1 220457Z 11008KT 31/16 A2996 RMK A01 T03050155  RH  040%=      5-min Rain = 0
KLA1 220458Z 11006KT 31/16 A2996 RMK A01 T03060155  RH  040%=      5-min Rain = 0
KLA1 220459Z 11008KT 31/16 A2996 RMK A01 T03060155  RH  040%=      5-min Rain = 0

Page generated in 0.1218 seconds.